SVR299 USSS-UHBB
Flight info
| Callsign | SVR299 |
|---|---|
| Flight time | 7h 3m |
| Altitude | 33000 |
| Route | K0813F330 DOSUM6J DOSUM T377 SALER N992 LAMEG/K0824F350 N992 GU G229 UDRIL N620 BADOM M160 RUNET RUNET2G |
| Aircraft | A320/M-SDE3FGHIRWY/LB1 |
Departure
| Time | 2026-04-15 05:46 |
|---|---|
| Airport | Koltsovo Airport (USSS) |
Arrival
| Time | 2026-04-15 12:49 |
|---|---|
| Airport | Ignatyevo Airport (UHBB) |
| Time | Latitude | Longitude | Altitude | Speed | Heading |
|---|---|---|---|---|---|
| 2026-04-15 05:28 | 56.74935 | 60.79831 | 775 ft | 0 kts | 360° |
| 2026-04-15 05:38 | 56.74926 | 60.79831 | 774 ft | 3 kts | 357° |
| 2026-04-15 05:38 | 56.74906 | 60.79834 | 774 ft | 3 kts | 358° |
| 2026-04-15 05:38 | 56.74886 | 60.79837 | 774 ft | 3 kts | 342° |
| 2026-04-15 05:38 | 56.74868 | 60.79851 | 774 ft | 3 kts | 321° |
| 2026-04-15 05:39 | 56.74856 | 60.79874 | 774 ft | 2 kts | 301° |
| 2026-04-15 05:39 | 56.74852 | 60.79884 | 774 ft | 0 kts | 300° |
| 2026-04-15 05:41 | 56.74853 | 60.79870 | 774 ft | 4 kts | 281° |
| 2026-04-15 05:41 | 56.74854 | 60.79815 | 774 ft | 6 kts | 271° |
| 2026-04-15 05:41 | 56.74854 | 60.79745 | 774 ft | 7 kts | 269° |
| 2026-04-15 05:41 | 56.74857 | 60.79580 | 774 ft | 16 kts | 271° |
| 2026-04-15 05:42 | 56.74859 | 60.79400 | 774 ft | 13 kts | 269° |
| 2026-04-15 05:42 | 56.74846 | 60.79214 | 774 ft | 15 kts | 229° |
| 2026-04-15 05:42 | 56.74766 | 60.79195 | 774 ft | 15 kts | 184° |
| 2026-04-15 05:42 | 56.74664 | 60.79104 | 774 ft | 17 kts | 259° |
| 2026-04-15 05:43 | 56.74661 | 60.78898 | 774 ft | 18 kts | 269° |
| 2026-04-15 05:43 | 56.74661 | 60.78643 | 774 ft | 21 kts | 270° |
| 2026-04-15 05:43 | 56.74662 | 60.78376 | 774 ft | 21 kts | 270° |
| 2026-04-15 05:43 | 56.74637 | 60.78157 | 774 ft | 15 kts | 211° |
| 2026-04-15 05:44 | 56.74513 | 60.78149 | 774 ft | 24 kts | 179° |
| 2026-04-15 05:44 | 56.74360 | 60.78078 | 774 ft | 22 kts | 207° |
| 2026-04-15 05:44 | 56.74251 | 60.77993 | 774 ft | 9 kts | 188° |
| 2026-04-15 05:44 | 56.74226 | 60.78043 | 774 ft | 5 kts | 93° |
| 2026-04-15 05:45 | 56.74224 | 60.78092 | 774 ft | 6 kts | 94° |
| 2026-04-15 05:45 | 56.74211 | 60.78461 | 774 ft | 63 kts | 93° |
| 2026-04-15 05:45 | 56.74165 | 60.79684 | 774 ft | 125 kts | 94° |
| 2026-04-15 05:45 | 56.74095 | 60.81543 | 801 ft | 169 kts | 94° |
| 2026-04-15 05:46 | 56.74024 | 60.83787 | 1238 ft | 181 kts | 90° |
| 2026-04-15 05:46 | 56.73988 | 60.86105 | 1873 ft | 188 kts | 89° |
| 2026-04-15 05:46 | 56.73967 | 60.88572 | 2196 ft | 206 kts | 89° |
| 2026-04-15 05:46 | 56.73951 | 60.91326 | 2469 ft | 229 kts | 89° |
| 2026-04-15 05:47 | 56.73933 | 60.94280 | 3090 ft | 235 kts | 88° |
| 2026-04-15 05:47 | 56.73911 | 60.97269 | 3898 ft | 237 kts | 87° |
| 2026-04-15 05:47 | 56.73944 | 61.00284 | 4608 ft | 240 kts | 77° |
| 2026-04-15 05:47 | 56.74710 | 61.02936 | 5099 ft | 242 kts | 39° |
| 2026-04-15 05:48 | 56.76238 | 61.04127 | 5710 ft | 245 kts | 3° |
| 2026-04-15 05:48 | 56.77943 | 61.03815 | 6393 ft | 248 kts | 355° |
| 2026-04-15 05:48 | 56.79662 | 61.04011 | 7087 ft | 249 kts | 11° |
| 2026-04-15 05:48 | 56.81357 | 61.04736 | 7739 ft | 251 kts | 18° |
| 2026-04-15 05:49 | 56.83011 | 61.05831 | 8370 ft | 254 kts | 21° |
| 2026-04-15 05:49 | 56.84652 | 61.07071 | 8996 ft | 257 kts | 22° |
| 2026-04-15 05:49 | 56.86310 | 61.08362 | 9596 ft | 260 kts | 22° |
| 2026-04-15 05:49 | 56.87982 | 61.09658 | 10223 ft | 262 kts | 21° |
| 2026-04-15 05:50 | 56.89684 | 61.10953 | 10662 ft | 273 kts | 20° |
| 2026-04-15 05:50 | 56.91503 | 61.12317 | 10807 ft | 292 kts | 20° |
| 2026-04-15 05:50 | 56.95471 | 61.15246 | 11459 ft | 315 kts | 19° |
| 2026-04-15 05:51 | 56.97511 | 61.16753 | 12059 ft | 317 kts | 19° |
| 2026-04-15 05:51 | 56.99564 | 61.18269 | 12669 ft | 319 kts | 18° |
| 2026-04-15 05:51 | 57.01628 | 61.19790 | 13271 ft | 321 kts | 19° |
| 2026-04-15 05:51 | 57.03709 | 61.21322 | 13846 ft | 323 kts | 19° |
| 2026-04-15 05:52 | 57.05797 | 61.22863 | 14404 ft | 325 kts | 19° |
| 2026-04-15 05:52 | 57.07898 | 61.24415 | 14952 ft | 326 kts | 19° |
| 2026-04-15 05:52 | 57.10008 | 61.25969 | 15485 ft | 327 kts | 18° |
| 2026-04-15 05:52 | 57.12128 | 61.27533 | 15999 ft | 329 kts | 19° |
| 2026-04-15 05:53 | 57.14261 | 61.29115 | 16494 ft | 331 kts | 19° |
| 2026-04-15 05:53 | 57.16402 | 61.30713 | 16992 ft | 333 kts | 19° |
| 2026-04-15 05:53 | 57.18556 | 61.32317 | 17500 ft | 334 kts | 19° |
| 2026-04-15 05:53 | 57.20688 | 61.33908 | 17988 ft | 336 kts | 19° |
| 2026-04-15 05:54 | 57.22859 | 61.35530 | 18468 ft | 337 kts | 19° |
| 2026-04-15 05:54 | 57.25039 | 61.37171 | 18905 ft | 340 kts | 21° |
| 2026-04-15 05:54 | 57.27102 | 61.39399 | 19337 ft | 348 kts | 33° |
| 2026-04-15 05:54 | 57.28882 | 61.42493 | 19801 ft | 356 kts | 44° |
| 2026-04-15 05:55 | 57.30283 | 61.46334 | 20241 ft | 367 kts | 56° |
| 2026-04-15 05:55 | 57.31319 | 61.50710 | 20656 ft | 373 kts | 60° |
| 2026-04-15 05:55 | 57.32313 | 61.55155 | 21087 ft | 375 kts | 60° |
| 2026-04-15 05:55 | 57.33309 | 61.59629 | 21505 ft | 377 kts | 60° |
| 2026-04-15 05:56 | 57.34312 | 61.64122 | 21905 ft | 378 kts | 60° |
| 2026-04-15 05:56 | 57.35318 | 61.68633 | 22300 ft | 380 kts | 60° |
| 2026-04-15 05:56 | 57.36326 | 61.73171 | 22673 ft | 382 kts | 60° |
| 2026-04-15 05:56 | 57.37336 | 61.77731 | 23030 ft | 384 kts | 60° |
| 2026-04-15 05:57 | 57.38350 | 61.82319 | 23379 ft | 385 kts | 60° |
| 2026-04-15 05:57 | 57.39366 | 61.86919 | 23734 ft | 386 kts | 60° |
| 2026-04-15 05:57 | 57.40383 | 61.91539 | 24063 ft | 388 kts | 61° |
| 2026-04-15 05:57 | 57.41405 | 61.96185 | 24394 ft | 390 kts | 61° |
| 2026-04-15 05:58 | 57.42426 | 62.00851 | 24712 ft | 391 kts | 61° |
| 2026-04-15 05:58 | 57.43452 | 62.05537 | 25018 ft | 392 kts | 60° |
| 2026-04-15 05:58 | 57.44479 | 62.10234 | 25299 ft | 394 kts | 61° |
| 2026-04-15 05:58 | 57.45510 | 62.14960 | 25571 ft | 396 kts | 61° |
| 2026-04-15 05:59 | 57.46545 | 62.19717 | 25827 ft | 398 kts | 61° |
| 2026-04-15 05:59 | 57.47559 | 62.24508 | 26086 ft | 401 kts | 62° |
| 2026-04-15 05:59 | 57.48535 | 62.29386 | 26347 ft | 403 kts | 63° |
| 2026-04-15 05:59 | 57.49481 | 62.34303 | 26607 ft | 405 kts | 63° |
| 2026-04-15 06:00 | 57.50418 | 62.39262 | 26835 ft | 407 kts | 63° |
| 2026-04-15 06:00 | 57.51359 | 62.44237 | 27063 ft | 409 kts | 63° |
| 2026-04-15 06:00 | 57.52311 | 62.49236 | 27290 ft | 411 kts | 63° |
| 2026-04-15 06:00 | 57.53277 | 62.54241 | 27517 ft | 412 kts | 63° |
| 2026-04-15 06:01 | 57.54252 | 62.59273 | 27728 ft | 414 kts | 63° |
| 2026-04-15 06:01 | 57.55230 | 62.64325 | 27949 ft | 416 kts | 63° |
| 2026-04-15 06:01 | 57.56195 | 62.69332 | 28148 ft | 417 kts | 63° |
| 2026-04-15 06:01 | 57.57174 | 62.74438 | 28350 ft | 419 kts | 63° |
| 2026-04-15 06:02 | 57.58153 | 62.79561 | 28550 ft | 421 kts | 63° |
| 2026-04-15 06:02 | 57.59135 | 62.84711 | 28741 ft | 422 kts | 64° |
| 2026-04-15 06:02 | 57.60118 | 62.89878 | 28937 ft | 423 kts | 64° |
| 2026-04-15 06:02 | 57.61102 | 62.95064 | 29133 ft | 425 kts | 64° |
| 2026-04-15 06:03 | 57.62085 | 63.00271 | 29300 ft | 426 kts | 64° |
| 2026-04-15 06:03 | 57.63068 | 63.05496 | 29466 ft | 428 kts | 64° |
| 2026-04-15 06:03 | 57.64053 | 63.10749 | 29636 ft | 429 kts | 64° |
| 2026-04-15 06:03 | 57.65034 | 63.16003 | 29871 ft | 428 kts | 64° |
| 2026-04-15 06:04 | 57.66011 | 63.21241 | 30134 ft | 427 kts | 64° |
| 2026-04-15 06:04 | 57.66981 | 63.26466 | 30375 ft | 425 kts | 64° |
| 2026-04-15 06:04 | 57.67951 | 63.31692 | 30584 ft | 425 kts | 64° |
| 2026-04-15 06:04 | 57.68919 | 63.36912 | 30808 ft | 425 kts | 64° |
| 2026-04-15 06:05 | 57.69884 | 63.42133 | 31006 ft | 425 kts | 64° |
| 2026-04-15 06:05 | 57.70847 | 63.47349 | 31209 ft | 424 kts | 64° |
| 2026-04-15 06:05 | 57.71808 | 63.52567 | 31413 ft | 424 kts | 64° |
| 2026-04-15 06:05 | 57.72764 | 63.57787 | 31636 ft | 424 kts | 64° |
| 2026-04-15 06:06 | 57.73715 | 63.63003 | 31837 ft | 423 kts | 64° |
| 2026-04-15 06:06 | 57.74664 | 63.68212 | 32032 ft | 423 kts | 64° |
| 2026-04-15 06:06 | 57.75612 | 63.73424 | 32222 ft | 422 kts | 64° |
| 2026-04-15 06:06 | 57.76554 | 63.78626 | 32392 ft | 423 kts | 64° |
| 2026-04-15 06:07 | 57.77497 | 63.83848 | 32569 ft | 423 kts | 64° |
| 2026-04-15 06:07 | 57.78435 | 63.89060 | 32745 ft | 423 kts | 64° |
| 2026-04-15 06:07 | 57.79373 | 63.94289 | 32913 ft | 423 kts | 64° |
| 2026-04-15 06:07 | 57.80306 | 63.99508 | 33060 ft | 423 kts | 64° |
| 2026-04-15 06:08 | 57.81238 | 64.04743 | 33222 ft | 423 kts | 64° |
| 2026-04-15 06:08 | 57.82169 | 64.09979 | 33356 ft | 423 kts | 64° |
| 2026-04-15 06:08 | 57.82992 | 64.15293 | 33387 ft | 427 kts | 71° |
| 2026-04-15 06:09 | 57.84024 | 64.26245 | 33387 ft | 430 kts | 73° |
| 2026-04-15 06:09 | 57.85031 | 64.37315 | 33386 ft | 430 kts | 73° |
| 2026-04-15 06:10 | 57.86032 | 64.48406 | 33386 ft | 431 kts | 73° |
| 2026-04-15 06:10 | 57.87036 | 64.59513 | 33385 ft | 432 kts | 73° |
| 2026-04-15 06:11 | 57.88025 | 64.70643 | 33378 ft | 433 kts | 73° |
| 2026-04-15 06:11 | 57.89001 | 64.81813 | 33375 ft | 433 kts | 73° |
| 2026-04-15 06:12 | 57.89971 | 64.93003 | 33373 ft | 435 kts | 73° |
| 2026-04-15 06:12 | 57.90941 | 65.04230 | 33375 ft | 435 kts | 73° |
| 2026-04-15 06:13 | 57.91906 | 65.15479 | 33375 ft | 436 kts | 74° |
| 2026-04-15 06:13 | 57.92849 | 65.26737 | 33378 ft | 436 kts | 74° |
| 2026-04-15 06:14 | 57.93775 | 65.37932 | 33385 ft | 436 kts | 74° |
| 2026-04-15 06:14 | 57.94698 | 65.49191 | 33388 ft | 435 kts | 74° |
| 2026-04-15 06:15 | 57.95621 | 65.60439 | 33390 ft | 435 kts | 75° |
| 2026-04-15 06:15 | 57.96531 | 65.71712 | 33380 ft | 435 kts | 75° |
| 2026-04-15 06:16 | 57.97422 | 65.82966 | 33386 ft | 434 kts | 75° |
| 2026-04-15 06:16 | 57.98303 | 65.94214 | 33386 ft | 433 kts | 75° |
| 2026-04-15 06:17 | 57.99163 | 66.05447 | 33384 ft | 433 kts | 76° |
| 2026-04-15 06:17 | 58.00007 | 66.16695 | 33389 ft | 434 kts | 76° |
| 2026-04-15 06:18 | 58.00843 | 66.27950 | 33388 ft | 433 kts | 76° |
| 2026-04-15 06:18 | 58.01668 | 66.39210 | 33380 ft | 434 kts | 76° |
| 2026-04-15 06:19 | 58.02485 | 66.50494 | 33380 ft | 434 kts | 76° |
| 2026-04-15 06:19 | 58.03290 | 66.61775 | 33374 ft | 434 kts | 76° |
| 2026-04-15 06:20 | 58.03952 | 66.71166 | 33367 ft | 434 kts | 76° |
| 2026-04-15 06:20 | 58.04732 | 66.82473 | 33362 ft | 435 kts | 76° |
| 2026-04-15 06:21 | 58.05521 | 66.93805 | 33363 ft | 435 kts | 76° |
| 2026-04-15 06:21 | 58.06325 | 67.05129 | 33360 ft | 435 kts | 76° |
| 2026-04-15 06:22 | 58.07120 | 67.16470 | 33358 ft | 436 kts | 76° |
| 2026-04-15 06:22 | 58.07893 | 67.27815 | 33365 ft | 435 kts | 77° |
| 2026-04-15 06:23 | 58.08653 | 67.39167 | 33369 ft | 435 kts | 77° |
| 2026-04-15 06:23 | 58.09402 | 67.50502 | 33375 ft | 435 kts | 77° |
| 2026-04-15 06:24 | 58.10131 | 67.61771 | 33377 ft | 434 kts | 77° |
| 2026-04-15 06:24 | 58.10866 | 67.73090 | 33377 ft | 433 kts | 77° |
| 2026-04-15 06:25 | 58.11587 | 67.84404 | 33375 ft | 433 kts | 77° |
| 2026-04-15 06:25 | 58.12294 | 67.95700 | 33374 ft | 432 kts | 77° |
| 2026-04-15 06:26 | 58.12985 | 68.06987 | 33372 ft | 432 kts | 77° |
| 2026-04-15 06:26 | 58.13669 | 68.18279 | 33368 ft | 432 kts | 77° |
| 2026-04-15 06:27 | 58.14352 | 68.29561 | 33362 ft | 431 kts | 76° |
| 2026-04-15 06:27 | 58.15249 | 68.40753 | 33360 ft | 429 kts | 74° |
| 2026-04-15 06:28 | 58.16276 | 68.51881 | 33357 ft | 429 kts | 74° |
| 2026-04-15 06:28 | 58.17259 | 68.63040 | 33354 ft | 430 kts | 75° |
| 2026-04-15 06:29 | 58.18190 | 68.74248 | 33352 ft | 431 kts | 75° |
| 2026-04-15 06:29 | 58.19104 | 68.85485 | 33350 ft | 431 kts | 75° |
| 2026-04-15 06:30 | 58.20007 | 68.96732 | 33344 ft | 432 kts | 75° |
| 2026-04-15 06:30 | 58.20906 | 69.07985 | 33342 ft | 432 kts | 75° |
| 2026-04-15 06:31 | 58.21795 | 69.19258 | 33339 ft | 432 kts | 75° |
| 2026-04-15 06:31 | 58.22674 | 69.30529 | 33333 ft | 432 kts | 75° |
| 2026-04-15 06:32 | 58.23546 | 69.41802 | 33318 ft | 432 kts | 76° |
| 2026-04-15 06:32 | 58.24405 | 69.53010 | 33311 ft | 432 kts | 76° |
| 2026-04-15 06:33 | 58.25256 | 69.64288 | 33306 ft | 432 kts | 76° |
| 2026-04-15 06:33 | 58.26098 | 69.75575 | 33300 ft | 431 kts | 76° |
| 2026-04-15 06:34 | 58.26929 | 69.86842 | 33298 ft | 431 kts | 76° |
| 2026-04-15 06:34 | 58.27748 | 69.98112 | 33294 ft | 430 kts | 76° |
| 2026-04-15 06:35 | 58.28561 | 70.09385 | 33295 ft | 431 kts | 76° |
| 2026-04-15 06:35 | 58.29361 | 70.20679 | 33293 ft | 431 kts | 76° |
| 2026-04-15 06:36 | 58.30148 | 70.31981 | 33292 ft | 431 kts | 76° |
| 2026-04-15 06:36 | 58.30922 | 70.43279 | 33288 ft | 431 kts | 76° |
| 2026-04-15 06:37 | 58.31691 | 70.54594 | 33284 ft | 432 kts | 76° |
| 2026-04-15 06:37 | 58.32457 | 70.65928 | 33276 ft | 432 kts | 77° |
| 2026-04-15 06:38 | 58.33213 | 70.77298 | 33266 ft | 434 kts | 77° |
| 2026-04-15 06:38 | 58.33957 | 70.88697 | 33262 ft | 435 kts | 77° |
| 2026-04-15 06:39 | 58.34690 | 71.00135 | 33262 ft | 436 kts | 77° |
| 2026-04-15 06:39 | 58.35421 | 71.11594 | 33259 ft | 437 kts | 77° |
| 2026-04-15 06:40 | 58.36146 | 71.23093 | 33259 ft | 438 kts | 77° |
| 2026-04-15 06:40 | 58.36861 | 71.34606 | 33260 ft | 438 kts | 77° |
| 2026-04-15 06:41 | 58.37553 | 71.46090 | 33261 ft | 439 kts | 77° |
| 2026-04-15 06:41 | 58.38242 | 71.57673 | 33263 ft | 441 kts | 78° |
| 2026-04-15 06:42 | 58.38930 | 71.69282 | 33264 ft | 441 kts | 78° |
| 2026-04-15 06:42 | 58.39608 | 71.80919 | 33270 ft | 441 kts | 78° |
| 2026-04-15 06:43 | 58.40279 | 71.92552 | 33264 ft | 442 kts | 78° |
| 2026-04-15 06:43 | 58.40929 | 72.04210 | 33267 ft | 442 kts | 78° |
| 2026-04-15 06:44 | 58.41567 | 72.15889 | 33263 ft | 442 kts | 78° |
| 2026-04-15 06:44 | 58.42200 | 72.27565 | 33263 ft | 443 kts | 78° |
| 2026-04-15 06:45 | 58.42825 | 72.39265 | 33259 ft | 443 kts | 78° |
| 2026-04-15 06:45 | 58.43442 | 72.50981 | 33259 ft | 444 kts | 78° |
| 2026-04-15 06:46 | 58.44046 | 72.62723 | 33264 ft | 445 kts | 78° |
| 2026-04-15 06:46 | 58.44637 | 72.74477 | 33263 ft | 445 kts | 79° |
| 2026-04-15 06:47 | 58.45220 | 72.86242 | 33257 ft | 445 kts | 79° |
| 2026-04-15 06:47 | 58.45796 | 72.98037 | 33255 ft | 446 kts | 79° |
| 2026-04-15 06:48 | 58.46363 | 73.09852 | 33249 ft | 448 kts | 79° |
| 2026-04-15 06:48 | 58.46923 | 73.21711 | 33255 ft | 449 kts | 79° |
| 2026-04-15 06:49 | 58.47498 | 73.33597 | 33253 ft | 450 kts | 79° |
| 2026-04-15 06:49 | 58.48074 | 73.45432 | 33247 ft | 451 kts | 79° |
| 2026-04-15 06:50 | 58.48922 | 73.63446 | 33225 ft | 453 kts | 79° |
| 2026-04-15 06:50 | 58.49472 | 73.75455 | 33203 ft | 454 kts | 79° |
| 2026-04-15 06:51 | 58.50021 | 73.87478 | 33190 ft | 454 kts | 79° |
| 2026-04-15 06:51 | 58.50550 | 73.99423 | 33176 ft | 455 kts | 80° |
| 2026-04-15 06:52 | 58.51064 | 74.11501 | 33166 ft | 456 kts | 80° |
| 2026-04-15 06:52 | 58.51558 | 74.23622 | 33171 ft | 457 kts | 80° |
| 2026-04-15 06:53 | 58.52054 | 74.35747 | 33180 ft | 458 kts | 80° |
| 2026-04-15 06:53 | 58.52545 | 74.47887 | 33171 ft | 458 kts | 80° |
| 2026-04-15 06:54 | 58.53021 | 74.60033 | 33176 ft | 457 kts | 80° |
| 2026-04-15 06:54 | 58.53486 | 74.72183 | 33179 ft | 458 kts | 80° |
| 2026-04-15 06:55 | 58.53935 | 74.84365 | 33179 ft | 459 kts | 80° |
| 2026-04-15 06:55 | 58.54373 | 74.96547 | 33179 ft | 459 kts | 80° |
| 2026-04-15 06:56 | 58.54807 | 75.08752 | 33182 ft | 459 kts | 80° |
| 2026-04-15 06:56 | 58.55225 | 75.20965 | 33183 ft | 460 kts | 81° |
| 2026-04-15 06:57 | 58.55632 | 75.33202 | 33179 ft | 461 kts | 81° |
| 2026-04-15 06:57 | 58.56027 | 75.45375 | 33176 ft | 461 kts | 81° |
| 2026-04-15 06:58 | 58.56411 | 75.57664 | 33176 ft | 463 kts | 81° |
| 2026-04-15 06:58 | 58.56786 | 75.70057 | 33172 ft | 463 kts | 81° |
| 2026-04-15 06:59 | 58.57146 | 75.82306 | 33170 ft | 464 kts | 81° |
| 2026-04-15 06:59 | 58.57504 | 75.94663 | 33179 ft | 465 kts | 81° |
| 2026-04-15 07:00 | 58.57847 | 76.07042 | 33176 ft | 465 kts | 82° |
| 2026-04-15 07:00 | 58.58173 | 76.19432 | 33174 ft | 466 kts | 82° |
| 2026-04-15 07:01 | 58.58489 | 76.31849 | 33176 ft | 466 kts | 82° |
| 2026-04-15 07:01 | 58.58799 | 76.44275 | 33175 ft | 467 kts | 82° |
| 2026-04-15 07:02 | 58.59121 | 76.56692 | 33179 ft | 466 kts | 81° |
| 2026-04-15 07:02 | 58.59633 | 76.69060 | 33151 ft | 465 kts | 79° |
| 2026-04-15 07:03 | 58.60200 | 76.81414 | 33138 ft | 465 kts | 80° |
| 2026-04-15 07:03 | 58.60715 | 76.93783 | 33129 ft | 466 kts | 81° |
| 2026-04-15 07:04 | 58.61179 | 77.06186 | 33121 ft | 467 kts | 81° |
| 2026-04-15 07:04 | 58.61633 | 77.18602 | 33119 ft | 467 kts | 81° |
| 2026-04-15 07:05 | 58.62085 | 77.31025 | 33112 ft | 467 kts | 81° |
| 2026-04-15 07:05 | 58.62524 | 77.43456 | 33107 ft | 468 kts | 81° |
| 2026-04-15 07:06 | 58.62955 | 77.55912 | 33106 ft | 468 kts | 82° |
| 2026-04-15 07:06 | 58.63376 | 77.68378 | 33104 ft | 469 kts | 82° |
| 2026-04-15 07:07 | 58.63778 | 77.80868 | 33094 ft | 469 kts | 82° |
| 2026-04-15 07:07 | 58.64169 | 77.93380 | 33091 ft | 470 kts | 82° |
| 2026-04-15 07:08 | 58.64542 | 78.05922 | 33090 ft | 471 kts | 83° |
| 2026-04-15 07:08 | 58.64922 | 78.18474 | 33092 ft | 471 kts | 83° |
| 2026-04-15 07:09 | 58.65285 | 78.30967 | 33091 ft | 472 kts | 83° |
| 2026-04-15 07:09 | 58.65624 | 78.43561 | 33096 ft | 472 kts | 83° |
| 2026-04-15 07:10 | 58.65958 | 78.56148 | 33097 ft | 472 kts | 83° |
| 2026-04-15 07:10 | 58.66229 | 78.66700 | 33102 ft | 472 kts | 83° |
| 2026-04-15 07:11 | 58.66549 | 78.79314 | 33102 ft | 473 kts | 83° |
| 2026-04-15 07:11 | 58.66850 | 78.91929 | 33100 ft | 473 kts | 84° |
| 2026-04-15 07:12 | 58.67135 | 79.04471 | 33095 ft | 473 kts | 84° |
| 2026-04-15 07:12 | 58.67409 | 79.17174 | 33086 ft | 473 kts | 84° |
| 2026-04-15 07:13 | 58.67667 | 79.29822 | 33078 ft | 474 kts | 84° |
| 2026-04-15 07:13 | 58.67919 | 79.42388 | 33073 ft | 474 kts | 84° |
| 2026-04-15 07:14 | 58.68162 | 79.55055 | 33068 ft | 475 kts | 85° |
| 2026-04-15 07:14 | 58.68387 | 79.67747 | 33071 ft | 476 kts | 85° |
| 2026-04-15 07:15 | 58.68633 | 79.80455 | 33075 ft | 476 kts | 84° |
| 2026-04-15 07:15 | 58.68901 | 79.93171 | 33074 ft | 476 kts | 84° |
| 2026-04-15 07:16 | 58.69152 | 80.05885 | 33072 ft | 476 kts | 85° |
| 2026-04-15 07:16 | 58.69384 | 80.18630 | 33070 ft | 477 kts | 85° |
| 2026-04-15 07:17 | 58.69598 | 80.31379 | 33071 ft | 478 kts | 85° |
| 2026-04-15 07:17 | 58.69808 | 80.44144 | 33070 ft | 478 kts | 85° |
| 2026-04-15 07:18 | 58.70012 | 80.56903 | 33074 ft | 478 kts | 85° |
| 2026-04-15 07:18 | 58.70187 | 80.69668 | 33073 ft | 478 kts | 86° |
| 2026-04-15 07:19 | 58.70341 | 80.82445 | 33076 ft | 478 kts | 86° |
| 2026-04-15 07:19 | 58.70495 | 80.95210 | 33076 ft | 478 kts | 86° |
| 2026-04-15 07:20 | 58.70635 | 81.07897 | 33073 ft | 477 kts | 86° |
| 2026-04-15 07:20 | 58.70769 | 81.20663 | 33068 ft | 478 kts | 86° |
| 2026-04-15 07:21 | 58.70890 | 81.33435 | 33060 ft | 478 kts | 86° |
| 2026-04-15 07:21 | 58.70984 | 81.46213 | 33058 ft | 478 kts | 87° |
| 2026-04-15 07:22 | 58.71070 | 81.58998 | 33049 ft | 478 kts | 87° |
| 2026-04-15 07:22 | 58.71147 | 81.71792 | 33044 ft | 479 kts | 87° |
| 2026-04-15 07:23 | 58.71211 | 81.84590 | 33040 ft | 479 kts | 87° |
| 2026-04-15 07:23 | 58.71262 | 81.97401 | 33037 ft | 479 kts | 87° |
| 2026-04-15 07:24 | 58.71289 | 82.10231 | 33047 ft | 480 kts | 88° |
| 2026-04-15 07:24 | 58.71311 | 82.23080 | 33042 ft | 480 kts | 88° |
| 2026-04-15 07:25 | 58.71329 | 82.35926 | 33045 ft | 480 kts | 88° |
| 2026-04-15 07:25 | 58.71325 | 82.48782 | 33016 ft | 481 kts | 88° |
| 2026-04-15 07:26 | 58.71302 | 82.61621 | 32984 ft | 479 kts | 88° |
| 2026-04-15 07:26 | 58.71275 | 82.74438 | 32978 ft | 479 kts | 88° |
| 2026-04-15 07:27 | 58.71240 | 82.87238 | 32976 ft | 478 kts | 89° |
| 2026-04-15 07:27 | 58.71185 | 83.00032 | 32960 ft | 478 kts | 89° |
| 2026-04-15 07:28 | 58.71118 | 83.12808 | 32959 ft | 478 kts | 89° |
| 2026-04-15 07:28 | 58.71039 | 83.25593 | 32950 ft | 478 kts | 89° |
| 2026-04-15 07:29 | 58.70951 | 83.38300 | 32945 ft | 478 kts | 89° |
| 2026-04-15 07:29 | 58.70849 | 83.51091 | 32941 ft | 479 kts | 89° |
| 2026-04-15 07:30 | 58.70734 | 83.63897 | 32937 ft | 479 kts | 89° |
| 2026-04-15 07:30 | 58.70608 | 83.76706 | 32932 ft | 479 kts | 90° |
| 2026-04-15 07:31 | 58.70467 | 83.89535 | 32933 ft | 479 kts | 90° |
| 2026-04-15 07:31 | 58.70315 | 84.02356 | 32931 ft | 480 kts | 90° |
| 2026-04-15 07:32 | 58.70143 | 84.15195 | 32927 ft | 480 kts | 90° |
| 2026-04-15 07:32 | 58.69951 | 84.28040 | 32925 ft | 481 kts | 90° |
| 2026-04-15 07:33 | 58.69761 | 84.40889 | 32935 ft | 480 kts | 90° |
| 2026-04-15 07:33 | 58.69563 | 84.53732 | 32936 ft | 480 kts | 90° |
| 2026-04-15 07:34 | 58.69346 | 84.66558 | 32934 ft | 480 kts | 90° |
| 2026-04-15 07:34 | 58.69117 | 84.79374 | 32938 ft | 480 kts | 90° |
| 2026-04-15 07:35 | 58.68876 | 84.92181 | 32937 ft | 479 kts | 91° |
| 2026-04-15 07:35 | 58.68614 | 85.04988 | 32936 ft | 480 kts | 91° |
| 2026-04-15 07:36 | 58.68345 | 85.17801 | 32935 ft | 480 kts | 91° |
| 2026-04-15 07:36 | 58.68067 | 85.30512 | 32931 ft | 479 kts | 91° |
| 2026-04-15 07:37 | 58.67771 | 85.43306 | 32926 ft | 479 kts | 91° |
| 2026-04-15 07:37 | 58.67461 | 85.56084 | 32921 ft | 479 kts | 91° |
| 2026-04-15 07:38 | 58.67136 | 85.68871 | 32915 ft | 479 kts | 91° |
| 2026-04-15 07:38 | 58.66800 | 85.81651 | 32912 ft | 479 kts | 91° |
| 2026-04-15 07:39 | 58.66459 | 85.94441 | 32914 ft | 479 kts | 91° |
| 2026-04-15 07:39 | 58.66107 | 86.07239 | 32911 ft | 480 kts | 92° |
| 2026-04-15 07:40 | 58.65744 | 86.20040 | 32915 ft | 480 kts | 92° |
| 2026-04-15 07:40 | 58.65367 | 86.32832 | 32916 ft | 480 kts | 92° |
| 2026-04-15 07:41 | 58.64969 | 86.45616 | 32920 ft | 480 kts | 92° |
| 2026-04-15 07:41 | 58.64545 | 86.58401 | 32924 ft | 480 kts | 92° |
| 2026-04-15 07:42 | 58.64114 | 86.71178 | 32924 ft | 479 kts | 92° |
| 2026-04-15 07:42 | 58.63785 | 86.83943 | 32924 ft | 479 kts | 90° |
| 2026-04-15 07:43 | 58.63628 | 86.96715 | 32925 ft | 478 kts | 90° |
| 2026-04-15 07:43 | 58.63459 | 87.09472 | 32931 ft | 478 kts | 90° |
| 2026-04-15 07:44 | 58.63222 | 87.22211 | 32934 ft | 478 kts | 91° |
| 2026-04-15 07:44 | 58.62956 | 87.34949 | 32932 ft | 477 kts | 91° |
| 2026-04-15 07:45 | 58.62677 | 87.47677 | 32926 ft | 477 kts | 91° |
| 2026-04-15 07:45 | 58.62398 | 87.60397 | 32917 ft | 477 kts | 91° |
| 2026-04-15 07:46 | 58.62119 | 87.73130 | 32907 ft | 478 kts | 91° |
| 2026-04-15 07:46 | 58.61817 | 87.85866 | 32903 ft | 478 kts | 91° |
| 2026-04-15 07:47 | 58.61497 | 87.98596 | 32902 ft | 478 kts | 91° |
| 2026-04-15 07:47 | 58.61227 | 88.11255 | 32903 ft | 478 kts | 90° |
| 2026-04-15 07:48 | 58.60982 | 88.24005 | 32906 ft | 478 kts | 91° |
| 2026-04-15 07:48 | 58.60718 | 88.36748 | 32914 ft | 478 kts | 91° |
| 2026-04-15 07:49 | 58.60415 | 88.49493 | 32920 ft | 479 kts | 91° |
| 2026-04-15 07:49 | 58.60097 | 88.62242 | 32926 ft | 478 kts | 91° |
| 2026-04-15 07:50 | 58.59779 | 88.74962 | 32929 ft | 477 kts | 91° |
| 2026-04-15 07:50 | 58.59449 | 88.87656 | 32927 ft | 477 kts | 91° |
| 2026-04-15 07:51 | 58.59110 | 89.00341 | 32931 ft | 476 kts | 91° |
| 2026-04-15 07:51 | 58.58752 | 89.13011 | 32945 ft | 476 kts | 92° |
| 2026-04-15 07:52 | 58.58379 | 89.25680 | 32953 ft | 476 kts | 92° |
| 2026-04-15 07:52 | 58.57998 | 89.38348 | 32957 ft | 476 kts | 92° |
| 2026-04-15 07:53 | 58.57615 | 89.50999 | 32958 ft | 476 kts | 92° |
| 2026-04-15 07:53 | 58.57204 | 89.63648 | 32958 ft | 475 kts | 92° |
| 2026-04-15 07:54 | 58.56774 | 89.76282 | 32959 ft | 475 kts | 92° |
| 2026-04-15 07:54 | 58.56344 | 89.88907 | 32957 ft | 475 kts | 92° |
| 2026-04-15 07:55 | 58.55906 | 90.01535 | 32951 ft | 475 kts | 92° |
| 2026-04-15 07:56 | 58.55223 | 90.20458 | 32957 ft | 475 kts | 93° |
| 2026-04-15 07:56 | 58.54747 | 90.33068 | 32959 ft | 474 kts | 93° |
| 2026-04-15 07:57 | 58.54267 | 90.45576 | 32960 ft | 474 kts | 93° |
| 2026-04-15 07:57 | 58.53778 | 90.58157 | 32962 ft | 474 kts | 93° |
| 2026-04-15 07:58 | 58.53267 | 90.70725 | 32964 ft | 473 kts | 93° |
| 2026-04-15 07:58 | 58.52740 | 90.83264 | 32967 ft | 473 kts | 94° |
| 2026-04-15 07:59 | 58.52203 | 90.95799 | 32970 ft | 472 kts | 94° |
| 2026-04-15 07:59 | 58.51676 | 91.08299 | 32966 ft | 472 kts | 94° |
| 2026-04-15 07:59 | 58.51406 | 91.14574 | 33076 ft | 474 kts | 94° |
| 2026-04-15 08:00 | 58.51219 | 91.18834 | 33195 ft | 475 kts | 94° |
| 2026-04-15 08:00 | 58.50941 | 91.25130 | 33382 ft | 475 kts | 94° |
| 2026-04-15 08:00 | 58.50659 | 91.31340 | 33583 ft | 475 kts | 94° |
| 2026-04-15 08:00 | 58.50369 | 91.37635 | 33784 ft | 475 kts | 94° |
| 2026-04-15 08:01 | 58.50079 | 91.43924 | 34000 ft | 475 kts | 94° |
| 2026-04-15 08:01 | 58.49790 | 91.50208 | 34201 ft | 475 kts | 94° |
| 2026-04-15 08:01 | 58.49497 | 91.56488 | 34381 ft | 475 kts | 94° |
| 2026-04-15 08:01 | 58.49200 | 91.62779 | 34558 ft | 475 kts | 94° |
| 2026-04-15 08:02 | 58.48900 | 91.69053 | 34753 ft | 474 kts | 94° |
| 2026-04-15 08:02 | 58.48595 | 91.75322 | 34920 ft | 474 kts | 94° |
| 2026-04-15 08:02 | 58.48285 | 91.81598 | 34971 ft | 474 kts | 94° |
| 2026-04-15 08:03 | 58.47663 | 91.94131 | 34971 ft | 474 kts | 94° |
| 2026-04-15 08:03 | 58.47025 | 92.06670 | 34968 ft | 474 kts | 95° |
| 2026-04-15 08:04 | 58.46788 | 92.19215 | 34971 ft | 473 kts | 88° |
| 2026-04-15 08:04 | 58.46853 | 92.31770 | 34971 ft | 473 kts | 88° |
| 2026-04-15 08:05 | 58.46892 | 92.44333 | 34974 ft | 473 kts | 88° |
| 2026-04-15 08:05 | 58.46914 | 92.56886 | 34976 ft | 473 kts | 88° |
| 2026-04-15 08:06 | 58.46937 | 92.69356 | 34980 ft | 472 kts | 88° |
| 2026-04-15 08:06 | 58.46952 | 92.81887 | 34982 ft | 472 kts | 88° |
| 2026-04-15 08:07 | 58.46944 | 92.94410 | 34984 ft | 471 kts | 89° |
| 2026-04-15 08:07 | 58.46914 | 93.06918 | 34991 ft | 471 kts | 89° |
| 2026-04-15 08:08 | 58.46874 | 93.19410 | 34985 ft | 470 kts | 89° |
| 2026-04-15 08:08 | 58.46836 | 93.31910 | 34984 ft | 470 kts | 89° |
| 2026-04-15 08:09 | 58.46790 | 93.44391 | 34982 ft | 470 kts | 89° |
| 2026-04-15 08:09 | 58.46724 | 93.56874 | 34979 ft | 470 kts | 89° |
| 2026-04-15 08:10 | 58.46636 | 93.69350 | 34978 ft | 470 kts | 89° |
| 2026-04-15 08:10 | 58.46537 | 93.81831 | 34979 ft | 470 kts | 89° |
| 2026-04-15 08:11 | 58.46431 | 93.94304 | 34978 ft | 470 kts | 89° |
| 2026-04-15 08:11 | 58.46312 | 94.06773 | 34977 ft | 469 kts | 89° |
| 2026-04-15 08:12 | 58.46190 | 94.19242 | 34976 ft | 469 kts | 90° |
| 2026-04-15 08:12 | 58.46050 | 94.31623 | 34972 ft | 469 kts | 90° |
| 2026-04-15 08:13 | 58.45903 | 94.44075 | 34967 ft | 469 kts | 90° |
| 2026-04-15 08:13 | 58.45740 | 94.56524 | 34972 ft | 468 kts | 90° |
| 2026-04-15 08:14 | 58.45564 | 94.68953 | 34973 ft | 468 kts | 90° |
| 2026-04-15 08:14 | 58.45373 | 94.81388 | 34975 ft | 469 kts | 90° |
| 2026-04-15 08:15 | 58.45169 | 94.93815 | 34980 ft | 468 kts | 90° |
| 2026-04-15 08:15 | 58.44954 | 95.06228 | 34977 ft | 468 kts | 90° |
| 2026-04-15 08:16 | 58.44731 | 95.18638 | 34976 ft | 468 kts | 91° |
| 2026-04-15 08:16 | 58.44466 | 95.31050 | 34973 ft | 468 kts | 91° |
| 2026-04-15 08:17 | 58.44141 | 95.43448 | 34972 ft | 468 kts | 92° |
| 2026-04-15 08:17 | 58.43799 | 95.55862 | 34972 ft | 468 kts | 92° |
| 2026-04-15 08:18 | 58.43462 | 95.68272 | 34974 ft | 468 kts | 92° |
| 2026-04-15 08:18 | 58.43118 | 95.80659 | 34973 ft | 468 kts | 91° |
| 2026-04-15 08:19 | 58.42764 | 95.93043 | 34971 ft | 467 kts | 92° |
| 2026-04-15 08:19 | 58.42390 | 96.05404 | 34970 ft | 467 kts | 92° |
| 2026-04-15 08:20 | 58.42011 | 96.17783 | 34972 ft | 467 kts | 92° |
| 2026-04-15 08:20 | 58.41618 | 96.30151 | 34974 ft | 467 kts | 92° |
| 2026-04-15 08:21 | 58.41207 | 96.42514 | 34977 ft | 467 kts | 92° |
| 2026-04-15 08:21 | 58.40789 | 96.54792 | 34984 ft | 467 kts | 92° |
| 2026-04-15 08:22 | 58.40365 | 96.67148 | 34985 ft | 467 kts | 92° |
| 2026-04-15 08:22 | 58.39931 | 96.79505 | 34989 ft | 466 kts | 92° |
| 2026-04-15 08:23 | 58.39484 | 96.91841 | 34988 ft | 466 kts | 93° |
| 2026-04-15 08:23 | 58.39019 | 97.04157 | 34994 ft | 466 kts | 93° |
| 2026-04-15 08:24 | 58.38546 | 97.16466 | 34987 ft | 465 kts | 93° |
| 2026-04-15 08:24 | 58.38059 | 97.28750 | 34985 ft | 465 kts | 93° |
| 2026-04-15 08:25 | 58.37577 | 97.41045 | 34982 ft | 465 kts | 92° |
| 2026-04-15 08:25 | 58.37260 | 97.53359 | 34985 ft | 465 kts | 91° |
| 2026-04-15 08:26 | 58.37026 | 97.65658 | 34981 ft | 465 kts | 91° |
| 2026-04-15 08:26 | 58.36745 | 97.77952 | 34979 ft | 464 kts | 92° |
| 2026-04-15 08:27 | 58.36412 | 97.90240 | 34977 ft | 464 kts | 92° |
| 2026-04-15 08:27 | 58.36056 | 98.02515 | 34976 ft | 464 kts | 92° |
| 2026-04-15 08:28 | 58.35701 | 98.14704 | 34979 ft | 464 kts | 92° |
| 2026-04-15 08:28 | 58.35344 | 98.26977 | 34980 ft | 464 kts | 92° |
| 2026-04-15 08:29 | 58.34972 | 98.39242 | 34978 ft | 464 kts | 92° |
| 2026-04-15 08:29 | 58.34582 | 98.51508 | 34977 ft | 464 kts | 92° |
| 2026-04-15 08:30 | 58.34184 | 98.63758 | 34976 ft | 464 kts | 93° |
| 2026-04-15 08:30 | 58.33776 | 98.76015 | 34980 ft | 464 kts | 93° |
| 2026-04-15 08:31 | 58.33353 | 98.88256 | 34976 ft | 464 kts | 93° |
| 2026-04-15 08:31 | 58.32918 | 99.00484 | 34977 ft | 463 kts | 93° |
| 2026-04-15 08:32 | 58.32474 | 99.12718 | 34982 ft | 463 kts | 93° |
| 2026-04-15 08:32 | 58.32014 | 99.24932 | 34983 ft | 463 kts | 94° |
| 2026-04-15 08:33 | 58.31547 | 99.37134 | 34983 ft | 463 kts | 94° |
| 2026-04-15 08:33 | 58.31075 | 99.49253 | 34996 ft | 462 kts | 94° |
| 2026-04-15 08:34 | 58.30596 | 99.61452 | 34994 ft | 463 kts | 94° |
| 2026-04-15 08:34 | 58.30098 | 99.73643 | 34987 ft | 463 kts | 94° |
| 2026-04-15 08:35 | 58.29579 | 99.85832 | 34987 ft | 463 kts | 94° |
| 2026-04-15 08:35 | 58.29055 | 99.98032 | 34986 ft | 463 kts | 94° |
| 2026-04-15 08:36 | 58.28518 | 100.10236 | 34991 ft | 463 kts | 94° |
| 2026-04-15 08:36 | 58.27971 | 100.22438 | 34995 ft | 463 kts | 95° |
| 2026-04-15 08:37 | 58.27406 | 100.34643 | 34992 ft | 463 kts | 95° |
| 2026-04-15 08:37 | 58.26831 | 100.46829 | 34990 ft | 463 kts | 95° |
| 2026-04-15 08:38 | 58.26256 | 100.59006 | 34984 ft | 463 kts | 95° |
| 2026-04-15 08:38 | 58.25663 | 100.71167 | 34986 ft | 463 kts | 95° |
| 2026-04-15 08:39 | 58.25051 | 100.83339 | 34989 ft | 463 kts | 95° |
| 2026-04-15 08:39 | 58.24435 | 100.95498 | 34986 ft | 463 kts | 95° |
| 2026-04-15 08:40 | 58.23804 | 101.07668 | 34998 ft | 463 kts | 96° |
| 2026-04-15 08:40 | 58.23163 | 101.19828 | 34995 ft | 463 kts | 96° |
| 2026-04-15 08:41 | 58.22510 | 101.31979 | 34999 ft | 463 kts | 96° |
| 2026-04-15 08:41 | 58.21870 | 101.44116 | 34995 ft | 463 kts | 96° |
| 2026-04-15 08:42 | 58.21236 | 101.56258 | 35002 ft | 463 kts | 96° |
| 2026-04-15 08:42 | 58.20602 | 101.68316 | 34988 ft | 463 kts | 96° |
| 2026-04-15 08:43 | 58.19938 | 101.80450 | 34987 ft | 463 kts | 96° |
| 2026-04-15 08:43 | 58.19263 | 101.92597 | 34986 ft | 463 kts | 96° |
| 2026-04-15 08:44 | 58.18586 | 102.04732 | 34986 ft | 463 kts | 96° |
| 2026-04-15 08:44 | 58.17894 | 102.16858 | 34986 ft | 463 kts | 96° |
| 2026-04-15 08:45 | 58.17179 | 102.28982 | 34984 ft | 463 kts | 97° |
| 2026-04-15 08:45 | 58.16449 | 102.41115 | 34989 ft | 464 kts | 97° |
| 2026-04-15 08:46 | 58.15721 | 102.53245 | 34994 ft | 463 kts | 97° |
| 2026-04-15 08:46 | 58.14983 | 102.65351 | 35000 ft | 463 kts | 96° |
| 2026-04-15 08:47 | 58.14359 | 102.77476 | 35007 ft | 462 kts | 95° |
| 2026-04-15 08:47 | 58.13799 | 102.89592 | 35000 ft | 462 kts | 95° |
| 2026-04-15 08:48 | 58.13217 | 103.01712 | 34999 ft | 462 kts | 96° |
| 2026-04-15 08:48 | 58.12589 | 103.13819 | 34997 ft | 462 kts | 96° |
| 2026-04-15 08:49 | 58.11938 | 103.25918 | 35006 ft | 462 kts | 96° |
| 2026-04-15 08:49 | 58.11304 | 103.37931 | 34998 ft | 462 kts | 96° |
| 2026-04-15 08:50 | 58.10665 | 103.50029 | 34994 ft | 463 kts | 96° |
| 2026-04-15 08:50 | 58.09991 | 103.62137 | 34995 ft | 463 kts | 97° |
| 2026-04-15 08:51 | 58.09305 | 103.74232 | 34991 ft | 463 kts | 97° |
| 2026-04-15 08:51 | 58.08614 | 103.86332 | 34988 ft | 463 kts | 97° |
| 2026-04-15 08:52 | 58.08030 | 103.96467 | 34991 ft | 463 kts | 97° |
| 2026-04-15 08:52 | 58.07313 | 104.08564 | 34997 ft | 463 kts | 97° |
| 2026-04-15 08:53 | 58.06594 | 104.20564 | 34993 ft | 463 kts | 97° |
| 2026-04-15 08:53 | 58.05870 | 104.32663 | 34991 ft | 464 kts | 97° |
| 2026-04-15 08:54 | 58.05115 | 104.44749 | 35002 ft | 463 kts | 97° |
| 2026-04-15 08:54 | 58.04351 | 104.56825 | 35015 ft | 463 kts | 97° |
| 2026-04-15 08:55 | 58.03584 | 104.68889 | 35008 ft | 463 kts | 97° |
| 2026-04-15 08:55 | 58.02807 | 104.80951 | 35011 ft | 463 kts | 97° |
| 2026-04-15 08:56 | 58.02008 | 104.92989 | 35011 ft | 462 kts | 98° |
| 2026-04-15 08:56 | 58.01210 | 105.05000 | 35004 ft | 461 kts | 98° |
| 2026-04-15 08:57 | 58.00399 | 105.17001 | 35001 ft | 461 kts | 98° |
| 2026-04-15 08:57 | 57.99569 | 105.29005 | 34998 ft | 462 kts | 98° |
| 2026-04-15 08:58 | 57.98742 | 105.41017 | 34985 ft | 462 kts | 98° |
| 2026-04-15 08:58 | 57.97463 | 105.59010 | 34975 ft | 462 kts | 98° |
| 2026-04-15 08:59 | 57.96598 | 105.70912 | 34976 ft | 462 kts | 98° |
| 2026-04-15 08:59 | 57.95731 | 105.82897 | 34985 ft | 462 kts | 98° |
| 2026-04-15 09:00 | 57.94841 | 105.94867 | 34985 ft | 462 kts | 98° |
| 2026-04-15 09:00 | 57.93944 | 106.06852 | 34984 ft | 462 kts | 98° |
| 2026-04-15 09:01 | 57.93037 | 106.18827 | 34987 ft | 462 kts | 98° |
| 2026-04-15 09:01 | 57.92112 | 106.30786 | 34984 ft | 462 kts | 99° |
| 2026-04-15 09:02 | 57.91172 | 106.42726 | 34974 ft | 461 kts | 99° |
| 2026-04-15 09:02 | 57.90235 | 106.54660 | 34975 ft | 462 kts | 99° |
| 2026-04-15 09:03 | 57.89284 | 106.66612 | 34971 ft | 462 kts | 99° |
| 2026-04-15 09:03 | 57.88320 | 106.78538 | 34968 ft | 462 kts | 99° |
| 2026-04-15 09:04 | 57.87340 | 106.90478 | 34970 ft | 462 kts | 99° |
| 2026-04-15 09:04 | 57.86353 | 107.02397 | 34969 ft | 462 kts | 99° |
| 2026-04-15 09:05 | 57.85361 | 107.14248 | 34970 ft | 462 kts | 99° |
| 2026-04-15 09:05 | 57.84346 | 107.26150 | 34968 ft | 462 kts | 99° |
| 2026-04-15 09:06 | 57.83318 | 107.38061 | 34968 ft | 462 kts | 100° |
| 2026-04-15 09:06 | 57.82285 | 107.49968 | 34971 ft | 462 kts | 100° |
| 2026-04-15 09:07 | 57.81251 | 107.61867 | 34958 ft | 462 kts | 100° |
| 2026-04-15 09:07 | 57.80199 | 107.73746 | 34949 ft | 461 kts | 100° |
| 2026-04-15 09:08 | 57.79133 | 107.85599 | 34942 ft | 461 kts | 100° |
| 2026-04-15 09:08 | 57.78062 | 107.97460 | 34944 ft | 461 kts | 101° |
| 2026-04-15 09:09 | 57.76832 | 108.09253 | 34938 ft | 460 kts | 107° |
| 2026-04-15 09:09 | 57.75081 | 108.20779 | 34944 ft | 460 kts | 107° |
| 2026-04-15 09:10 | 57.73326 | 108.32310 | 34933 ft | 461 kts | 107° |
| 2026-04-15 09:10 | 57.71569 | 108.43833 | 34924 ft | 460 kts | 107° |
| 2026-04-15 09:11 | 57.69805 | 108.55342 | 34918 ft | 460 kts | 107° |
| 2026-04-15 09:11 | 57.68019 | 108.66834 | 34915 ft | 461 kts | 107° |
| 2026-04-15 09:12 | 57.66216 | 108.78344 | 34919 ft | 462 kts | 108° |
| 2026-04-15 09:12 | 57.64409 | 108.89848 | 34916 ft | 462 kts | 108° |
| 2026-04-15 09:13 | 57.62598 | 109.01359 | 34917 ft | 462 kts | 108° |
| 2026-04-15 09:13 | 57.60764 | 109.12855 | 34917 ft | 463 kts | 108° |
| 2026-04-15 09:14 | 57.58916 | 109.24343 | 34917 ft | 463 kts | 108° |
| 2026-04-15 09:14 | 57.57083 | 109.35753 | 34912 ft | 463 kts | 108° |
| 2026-04-15 09:15 | 57.55262 | 109.47240 | 34926 ft | 462 kts | 108° |
| 2026-04-15 09:15 | 57.53429 | 109.58697 | 34932 ft | 461 kts | 108° |
| 2026-04-15 09:16 | 57.51579 | 109.70124 | 34932 ft | 461 kts | 108° |
| 2026-04-15 09:16 | 57.49713 | 109.81533 | 34938 ft | 461 kts | 108° |
| 2026-04-15 09:17 | 57.47847 | 109.92923 | 34939 ft | 460 kts | 108° |
| 2026-04-15 09:17 | 57.45976 | 110.04294 | 34935 ft | 460 kts | 108° |
| 2026-04-15 09:18 | 57.44084 | 110.15654 | 34930 ft | 461 kts | 109° |
| 2026-04-15 09:18 | 57.42179 | 110.26992 | 34929 ft | 460 kts | 109° |
| 2026-04-15 09:19 | 57.40273 | 110.38329 | 34928 ft | 461 kts | 109° |
| 2026-04-15 09:19 | 57.38354 | 110.49661 | 34927 ft | 461 kts | 109° |
| 2026-04-15 09:20 | 57.36426 | 110.60989 | 34929 ft | 461 kts | 109° |
| 2026-04-15 09:20 | 57.34487 | 110.72305 | 34926 ft | 461 kts | 109° |
| 2026-04-15 09:21 | 57.32531 | 110.83608 | 34925 ft | 461 kts | 109° |
| 2026-04-15 09:21 | 57.30573 | 110.94901 | 34923 ft | 461 kts | 109° |
| 2026-04-15 09:22 | 57.28595 | 111.06203 | 34925 ft | 462 kts | 110° |
| 2026-04-15 09:22 | 57.26603 | 111.17486 | 34924 ft | 462 kts | 110° |
| 2026-04-15 09:23 | 57.24613 | 111.28694 | 34926 ft | 462 kts | 110° |
| 2026-04-15 09:23 | 57.22604 | 111.39972 | 34929 ft | 462 kts | 110° |
| 2026-04-15 09:24 | 57.20588 | 111.51242 | 34934 ft | 463 kts | 110° |
| 2026-04-15 09:24 | 57.18555 | 111.62494 | 34940 ft | 462 kts | 111° |
| 2026-04-15 09:25 | 57.16481 | 111.73715 | 34933 ft | 463 kts | 111° |
| 2026-04-15 09:25 | 57.14394 | 111.84927 | 34934 ft | 462 kts | 111° |
| 2026-04-15 09:26 | 57.12294 | 111.96117 | 34930 ft | 462 kts | 111° |
| 2026-04-15 09:26 | 57.10189 | 112.07285 | 34926 ft | 462 kts | 111° |
| 2026-04-15 09:27 | 57.08073 | 112.18432 | 34925 ft | 462 kts | 111° |
| 2026-04-15 09:27 | 57.05950 | 112.29560 | 34923 ft | 462 kts | 111° |
| 2026-04-15 09:28 | 57.03827 | 112.40692 | 34925 ft | 462 kts | 112° |
| 2026-04-15 09:28 | 57.01690 | 112.51816 | 34922 ft | 462 kts | 112° |
| 2026-04-15 09:29 | 56.99533 | 112.62921 | 34925 ft | 462 kts | 112° |
| 2026-04-15 09:29 | 56.97378 | 112.73940 | 34926 ft | 462 kts | 112° |
| 2026-04-15 09:30 | 56.95206 | 112.85004 | 34919 ft | 461 kts | 112° |
| 2026-04-15 09:30 | 56.93026 | 112.96059 | 34918 ft | 462 kts | 112° |
| 2026-04-15 09:31 | 56.90838 | 113.07115 | 34920 ft | 462 kts | 112° |
| 2026-04-15 09:31 | 56.88640 | 113.18164 | 34924 ft | 462 kts | 113° |
| 2026-04-15 09:32 | 56.86424 | 113.29188 | 34924 ft | 462 kts | 113° |
| 2026-04-15 09:32 | 56.84205 | 113.40215 | 34922 ft | 462 kts | 113° |
| 2026-04-15 09:33 | 56.81981 | 113.51224 | 34913 ft | 462 kts | 113° |
| 2026-04-15 09:33 | 56.79736 | 113.62207 | 34907 ft | 462 kts | 114° |
| 2026-04-15 09:34 | 56.77482 | 113.73186 | 34900 ft | 462 kts | 114° |
| 2026-04-15 09:34 | 56.75224 | 113.84156 | 34898 ft | 462 kts | 114° |
| 2026-04-15 09:35 | 56.72955 | 113.95120 | 34895 ft | 462 kts | 114° |
| 2026-04-15 09:35 | 56.70690 | 114.05989 | 34895 ft | 462 kts | 114° |
| 2026-04-15 09:36 | 56.68406 | 114.16920 | 34899 ft | 462 kts | 114° |
| 2026-04-15 09:36 | 56.66108 | 114.27827 | 34903 ft | 462 kts | 115° |
| 2026-04-15 09:37 | 56.63794 | 114.38720 | 34901 ft | 462 kts | 115° |
| 2026-04-15 09:37 | 56.61478 | 114.49597 | 34899 ft | 461 kts | 115° |
| 2026-04-15 09:38 | 56.59161 | 114.60463 | 34902 ft | 462 kts | 115° |
| 2026-04-15 09:38 | 56.56828 | 114.71301 | 34902 ft | 461 kts | 115° |
| 2026-04-15 09:39 | 56.54483 | 114.82111 | 34901 ft | 461 kts | 115° |
| 2026-04-15 09:39 | 56.52135 | 114.92913 | 34903 ft | 461 kts | 115° |
| 2026-04-15 09:40 | 56.49786 | 115.03691 | 34901 ft | 460 kts | 115° |
| 2026-04-15 09:40 | 56.47425 | 115.14450 | 34900 ft | 460 kts | 116° |
| 2026-04-15 09:41 | 56.45048 | 115.25189 | 34899 ft | 460 kts | 116° |
| 2026-04-15 09:41 | 56.42663 | 115.35906 | 34901 ft | 460 kts | 116° |
| 2026-04-15 09:42 | 56.40278 | 115.46612 | 34900 ft | 460 kts | 116° |
| 2026-04-15 09:42 | 56.38288 | 115.55506 | 34902 ft | 460 kts | 116° |
| 2026-04-15 09:43 | 56.35882 | 115.66198 | 34905 ft | 460 kts | 116° |
| 2026-04-15 09:43 | 56.33461 | 115.76887 | 34905 ft | 460 kts | 116° |
| 2026-04-15 09:44 | 56.31029 | 115.87560 | 34905 ft | 460 kts | 116° |
| 2026-04-15 09:44 | 56.28588 | 115.98210 | 34910 ft | 460 kts | 116° |
| 2026-04-15 09:45 | 56.26145 | 116.08866 | 34911 ft | 461 kts | 117° |
| 2026-04-15 09:45 | 56.23688 | 116.19511 | 34916 ft | 461 kts | 117° |
| 2026-04-15 09:46 | 56.21217 | 116.30135 | 34910 ft | 461 kts | 117° |
| 2026-04-15 09:46 | 56.18737 | 116.40744 | 34913 ft | 461 kts | 117° |
| 2026-04-15 09:47 | 56.16263 | 116.51340 | 34913 ft | 460 kts | 117° |
| 2026-04-15 09:47 | 56.13779 | 116.61909 | 34915 ft | 460 kts | 117° |
| 2026-04-15 09:48 | 56.11296 | 116.72405 | 34915 ft | 461 kts | 117° |
| 2026-04-15 09:48 | 56.08775 | 116.82954 | 34912 ft | 460 kts | 117° |
| 2026-04-15 09:49 | 56.06253 | 116.93503 | 34916 ft | 461 kts | 117° |
| 2026-04-15 09:49 | 56.03729 | 117.04045 | 34917 ft | 461 kts | 118° |
| 2026-04-15 09:50 | 56.01191 | 117.14568 | 34917 ft | 461 kts | 118° |
| 2026-04-15 09:50 | 55.98642 | 117.25086 | 34918 ft | 461 kts | 118° |
| 2026-04-15 09:51 | 55.96080 | 117.35573 | 34918 ft | 461 kts | 118° |
| 2026-04-15 09:51 | 55.93504 | 117.46041 | 34913 ft | 461 kts | 118° |
| 2026-04-15 09:52 | 55.90931 | 117.56509 | 34911 ft | 461 kts | 118° |
| 2026-04-15 09:52 | 55.88352 | 117.66992 | 34911 ft | 462 kts | 118° |
| 2026-04-15 09:53 | 55.85753 | 117.77452 | 34918 ft | 462 kts | 119° |
| 2026-04-15 09:53 | 55.83137 | 117.87881 | 34917 ft | 462 kts | 119° |
| 2026-04-15 09:54 | 55.80515 | 117.98299 | 34917 ft | 462 kts | 119° |
| 2026-04-15 09:54 | 55.77879 | 118.08708 | 34918 ft | 461 kts | 119° |
| 2026-04-15 09:55 | 55.75240 | 118.19103 | 34919 ft | 462 kts | 119° |
| 2026-04-15 09:55 | 55.72614 | 118.29515 | 34916 ft | 462 kts | 119° |
| 2026-04-15 09:56 | 55.69988 | 118.39913 | 34919 ft | 461 kts | 119° |
| 2026-04-15 09:57 | 55.66039 | 118.55466 | 34922 ft | 462 kts | 119° |
| 2026-04-15 09:57 | 55.63381 | 118.65818 | 34927 ft | 461 kts | 119° |
| 2026-04-15 09:58 | 55.60717 | 118.76155 | 34931 ft | 462 kts | 120° |
| 2026-04-15 09:58 | 55.58048 | 118.86495 | 34926 ft | 462 kts | 120° |
| 2026-04-15 09:59 | 55.55370 | 118.96798 | 34926 ft | 462 kts | 119° |
| 2026-04-15 09:59 | 55.52873 | 119.07285 | 34924 ft | 463 kts | 116° |
| 2026-04-15 10:00 | 55.50512 | 119.17798 | 34918 ft | 464 kts | 116° |
| 2026-04-15 10:00 | 55.48109 | 119.28344 | 34920 ft | 463 kts | 117° |
| 2026-04-15 10:01 | 55.45657 | 119.38834 | 34914 ft | 463 kts | 117° |
| 2026-04-15 10:01 | 55.43161 | 119.49273 | 34907 ft | 462 kts | 118° |
| 2026-04-15 10:02 | 55.40455 | 119.59526 | 34913 ft | 461 kts | 121° |
| 2026-04-15 10:02 | 55.37599 | 119.69606 | 34916 ft | 460 kts | 122° |
| 2026-04-15 10:03 | 55.34744 | 119.79680 | 34918 ft | 460 kts | 121° |
| 2026-04-15 10:03 | 55.31921 | 119.89773 | 34917 ft | 460 kts | 121° |
| 2026-04-15 10:04 | 55.29128 | 119.99882 | 34919 ft | 460 kts | 121° |
| 2026-04-15 10:04 | 55.26322 | 120.09966 | 34911 ft | 460 kts | 121° |
| 2026-04-15 10:05 | 55.23496 | 120.20024 | 34906 ft | 460 kts | 121° |
| 2026-04-15 10:05 | 55.20646 | 120.30061 | 34903 ft | 460 kts | 122° |
| 2026-04-15 10:06 | 55.17794 | 120.40077 | 34907 ft | 460 kts | 121° |
| 2026-04-15 10:06 | 55.14945 | 120.50091 | 34906 ft | 460 kts | 121° |
| 2026-04-15 10:07 | 55.12081 | 120.60081 | 34910 ft | 460 kts | 122° |
| 2026-04-15 10:07 | 55.09219 | 120.70016 | 34911 ft | 460 kts | 122° |
| 2026-04-15 10:08 | 55.06317 | 120.80053 | 34912 ft | 461 kts | 122° |
| 2026-04-15 10:08 | 55.03425 | 120.90018 | 34915 ft | 460 kts | 122° |
| 2026-04-15 10:09 | 55.00550 | 120.99895 | 34921 ft | 460 kts | 122° |
| 2026-04-15 10:09 | 54.97651 | 121.09819 | 34911 ft | 460 kts | 122° |
| 2026-04-15 10:10 | 54.94741 | 121.19739 | 34907 ft | 460 kts | 122° |
| 2026-04-15 10:10 | 54.91822 | 121.29637 | 34906 ft | 460 kts | 122° |
| 2026-04-15 10:11 | 54.88890 | 121.39516 | 34906 ft | 459 kts | 122° |
| 2026-04-15 10:11 | 54.85953 | 121.49383 | 34901 ft | 460 kts | 122° |
| 2026-04-15 10:12 | 54.83005 | 121.59238 | 34904 ft | 460 kts | 122° |
| 2026-04-15 10:12 | 54.80046 | 121.69077 | 34902 ft | 460 kts | 122° |
| 2026-04-15 10:13 | 54.77077 | 121.78930 | 34902 ft | 461 kts | 122° |
| 2026-04-15 10:13 | 54.74105 | 121.88764 | 34905 ft | 462 kts | 122° |
| 2026-04-15 10:14 | 54.71123 | 121.98606 | 34906 ft | 462 kts | 122° |
| 2026-04-15 10:14 | 54.68152 | 122.08364 | 34904 ft | 462 kts | 122° |
| 2026-04-15 10:15 | 54.65151 | 122.18174 | 34905 ft | 462 kts | 122° |
| 2026-04-15 10:15 | 54.62188 | 122.28029 | 34905 ft | 463 kts | 122° |
| 2026-04-15 10:16 | 54.59245 | 122.37904 | 34906 ft | 463 kts | 122° |
| 2026-04-15 10:16 | 54.56283 | 122.47755 | 34909 ft | 463 kts | 122° |
| 2026-04-15 10:17 | 54.53296 | 122.57571 | 34908 ft | 462 kts | 122° |
| 2026-04-15 10:17 | 54.50274 | 122.67332 | 34906 ft | 462 kts | 122° |
| 2026-04-15 10:18 | 54.47237 | 122.77081 | 34904 ft | 462 kts | 123° |
| 2026-04-15 10:18 | 54.44192 | 122.86829 | 34906 ft | 463 kts | 123° |
| 2026-04-15 10:19 | 54.41148 | 122.96563 | 34908 ft | 463 kts | 122° |
| 2026-04-15 10:19 | 54.38094 | 123.06304 | 34909 ft | 463 kts | 123° |
| 2026-04-15 10:20 | 54.35026 | 123.16026 | 34911 ft | 464 kts | 123° |
| 2026-04-15 10:20 | 54.31957 | 123.25742 | 34913 ft | 464 kts | 122° |
| 2026-04-15 10:21 | 54.28880 | 123.35441 | 34907 ft | 464 kts | 122° |
| 2026-04-15 10:21 | 54.25793 | 123.45122 | 34904 ft | 464 kts | 123° |
| 2026-04-15 10:22 | 54.22687 | 123.54791 | 34902 ft | 464 kts | 123° |
| 2026-04-15 10:22 | 54.19575 | 123.64468 | 34899 ft | 465 kts | 123° |
| 2026-04-15 10:23 | 54.16481 | 123.74068 | 34902 ft | 465 kts | 123° |
| 2026-04-15 10:23 | 54.13357 | 123.83713 | 34900 ft | 464 kts | 123° |
| 2026-04-15 10:24 | 54.10221 | 123.93346 | 34901 ft | 465 kts | 123° |
| 2026-04-15 10:24 | 54.07074 | 124.02955 | 34904 ft | 465 kts | 123° |
| 2026-04-15 10:25 | 54.03920 | 124.12564 | 34902 ft | 465 kts | 123° |
| 2026-04-15 10:25 | 54.00766 | 124.22145 | 34904 ft | 465 kts | 123° |
| 2026-04-15 10:26 | 53.97601 | 124.31732 | 34906 ft | 465 kts | 123° |
| 2026-04-15 10:26 | 53.94425 | 124.41292 | 34901 ft | 465 kts | 123° |
| 2026-04-15 10:27 | 53.91238 | 124.50849 | 34900 ft | 466 kts | 123° |
| 2026-04-15 10:27 | 53.88047 | 124.60402 | 34901 ft | 466 kts | 123° |
| 2026-04-15 10:28 | 53.84834 | 124.69949 | 34898 ft | 466 kts | 124° |
| 2026-04-15 10:28 | 53.81614 | 124.79482 | 34899 ft | 467 kts | 124° |
| 2026-04-15 10:29 | 53.78377 | 124.89020 | 34901 ft | 467 kts | 124° |
| 2026-04-15 10:29 | 53.75140 | 124.98549 | 34899 ft | 468 kts | 123° |
| 2026-04-15 10:30 | 53.71896 | 125.08079 | 34901 ft | 468 kts | 124° |
| 2026-04-15 10:30 | 53.68634 | 125.17593 | 34905 ft | 468 kts | 124° |
| 2026-04-15 10:31 | 53.65364 | 125.27095 | 34906 ft | 468 kts | 124° |
| 2026-04-15 10:31 | 53.62086 | 125.36569 | 34904 ft | 468 kts | 124° |
| 2026-04-15 10:32 | 53.59355 | 125.44448 | 34904 ft | 468 kts | 124° |
| 2026-04-15 10:32 | 53.56064 | 125.53912 | 34905 ft | 469 kts | 124° |
| 2026-04-15 10:33 | 53.52762 | 125.63366 | 34909 ft | 468 kts | 124° |
| 2026-04-15 10:33 | 53.49457 | 125.72788 | 34912 ft | 468 kts | 124° |
| 2026-04-15 10:34 | 53.45554 | 125.81354 | 34904 ft | 458 kts | 141° |
| 2026-04-15 10:34 | 53.40688 | 125.88092 | 34901 ft | 454 kts | 147° |
| 2026-04-15 10:35 | 53.35737 | 125.94654 | 34899 ft | 454 kts | 147° |
| 2026-04-15 10:35 | 53.30782 | 126.01195 | 34896 ft | 453 kts | 147° |
| 2026-04-15 10:36 | 53.25825 | 126.07734 | 34888 ft | 455 kts | 147° |
| 2026-04-15 10:36 | 53.20854 | 126.14284 | 34887 ft | 456 kts | 147° |
| 2026-04-15 10:37 | 53.15863 | 126.20821 | 34887 ft | 457 kts | 147° |
| 2026-04-15 10:37 | 53.10887 | 126.27305 | 34886 ft | 457 kts | 147° |
| 2026-04-15 10:38 | 53.05880 | 126.33830 | 34888 ft | 458 kts | 147° |
| 2026-04-15 10:38 | 53.00863 | 126.40356 | 34888 ft | 458 kts | 147° |
| 2026-04-15 10:39 | 52.95832 | 126.46866 | 34890 ft | 459 kts | 147° |
| 2026-04-15 10:39 | 52.90783 | 126.53355 | 34892 ft | 459 kts | 147° |
| 2026-04-15 10:40 | 52.85737 | 126.59848 | 34887 ft | 459 kts | 147° |
| 2026-04-15 10:40 | 52.80686 | 126.66340 | 34890 ft | 460 kts | 147° |
| 2026-04-15 10:41 | 52.75627 | 126.72833 | 34890 ft | 461 kts | 147° |
| 2026-04-15 10:41 | 52.70558 | 126.79304 | 34888 ft | 461 kts | 147° |
| 2026-04-15 10:42 | 52.65473 | 126.85755 | 34889 ft | 461 kts | 147° |
| 2026-04-15 10:42 | 52.60385 | 126.92195 | 34890 ft | 461 kts | 147° |
| 2026-04-15 10:43 | 52.55296 | 126.98615 | 34891 ft | 461 kts | 147° |
| 2026-04-15 10:43 | 52.50209 | 127.05030 | 34890 ft | 461 kts | 147° |
| 2026-04-15 10:44 | 52.44881 | 127.10736 | 34883 ft | 452 kts | 161° |
| 2026-04-15 10:44 | 52.38941 | 127.13549 | 34861 ft | 440 kts | 179° |
| 2026-04-15 10:45 | 52.32865 | 127.14062 | 34849 ft | 438 kts | 184° |
| 2026-04-15 10:45 | 52.26752 | 127.14446 | 34850 ft | 440 kts | 184° |
| 2026-04-15 10:46 | 52.20664 | 127.14820 | 34854 ft | 441 kts | 184° |
| 2026-04-15 10:46 | 52.14520 | 127.15198 | 34855 ft | 443 kts | 184° |
| 2026-04-15 10:47 | 52.08364 | 127.15586 | 34856 ft | 443 kts | 184° |
| 2026-04-15 10:47 | 52.02197 | 127.15978 | 34854 ft | 444 kts | 184° |
| 2026-04-15 10:48 | 51.96026 | 127.16350 | 34853 ft | 444 kts | 184° |
| 2026-04-15 10:48 | 51.89834 | 127.16720 | 34852 ft | 445 kts | 184° |
| 2026-04-15 10:49 | 51.83643 | 127.17088 | 34855 ft | 446 kts | 184° |
| 2026-04-15 10:49 | 51.77444 | 127.17461 | 34857 ft | 443 kts | 184° |
| 2026-04-15 10:49 | 51.74418 | 127.17653 | 34865 ft | 427 kts | 184° |
| 2026-04-15 10:50 | 51.71498 | 127.17850 | 34865 ft | 412 kts | 184° |
| 2026-04-15 10:50 | 51.68691 | 127.17706 | 34867 ft | 396 kts | 198° |
| 2026-04-15 10:50 | 51.66117 | 127.16451 | 34869 ft | 380 kts | 213° |
| 2026-04-15 10:50 | 51.63928 | 127.14214 | 34872 ft | 368 kts | 228° |
| 2026-04-15 10:51 | 51.62228 | 127.11227 | 34869 ft | 358 kts | 242° |
| 2026-04-15 10:51 | 51.61081 | 127.07729 | 34869 ft | 351 kts | 255° |
| 2026-04-15 10:51 | 51.60517 | 127.03951 | 34868 ft | 346 kts | 267° |
| 2026-04-15 10:51 | 51.60537 | 127.00149 | 34869 ft | 345 kts | 279° |
| 2026-04-15 10:52 | 51.61131 | 126.96424 | 34868 ft | 346 kts | 291° |
| 2026-04-15 10:52 | 51.62275 | 126.93013 | 34865 ft | 349 kts | 303° |
| 2026-04-15 10:52 | 51.63922 | 126.90129 | 34860 ft | 354 kts | 316° |
| 2026-04-15 10:52 | 51.66006 | 126.87953 | 34855 ft | 362 kts | 330° |
| 2026-04-15 10:53 | 51.68428 | 126.86674 | 34851 ft | 373 kts | 344° |
| 2026-04-15 10:53 | 51.73643 | 126.85844 | 34847 ft | 380 kts | 351° |
| 2026-04-15 10:54 | 51.78944 | 126.85653 | 34847 ft | 382 kts | 352° |
| 2026-04-15 10:54 | 51.84279 | 126.86184 | 34845 ft | 395 kts | 9° |
| 2026-04-15 10:54 | 51.86843 | 126.87935 | 34843 ft | 408 kts | 26° |
| 2026-04-15 10:55 | 51.89051 | 126.90902 | 34842 ft | 420 kts | 45° |
| 2026-04-15 10:55 | 51.90641 | 126.94916 | 34839 ft | 430 kts | 64° |
| 2026-04-15 10:55 | 51.91406 | 126.99621 | 34870 ft | 438 kts | 84° |
| 2026-04-15 10:55 | 51.91251 | 127.04557 | 34867 ft | 441 kts | 104° |
| 2026-04-15 10:56 | 51.90158 | 127.09170 | 34869 ft | 438 kts | 124° |
| 2026-04-15 10:56 | 51.88279 | 127.12973 | 34870 ft | 430 kts | 144° |
| 2026-04-15 10:56 | 51.85841 | 127.15629 | 34871 ft | 418 kts | 163° |
| 2026-04-15 10:56 | 51.83105 | 127.16958 | 34871 ft | 406 kts | 179° |
| 2026-04-15 10:57 | 51.80309 | 127.17465 | 34869 ft | 404 kts | 182° |
| 2026-04-15 10:57 | 51.71922 | 127.17935 | 34866 ft | 401 kts | 186° |
| 2026-04-15 10:58 | 51.69151 | 127.17815 | 34856 ft | 393 kts | 197° |
| 2026-04-15 10:58 | 51.66581 | 127.16641 | 34852 ft | 378 kts | 212° |
| 2026-04-15 10:58 | 51.64410 | 127.14513 | 34849 ft | 365 kts | 227° |
| 2026-04-15 10:58 | 51.62688 | 127.11544 | 34845 ft | 354 kts | 242° |
| 2026-04-15 10:59 | 51.61576 | 127.08075 | 34843 ft | 346 kts | 255° |
| 2026-04-15 10:59 | 51.61070 | 127.04330 | 34841 ft | 342 kts | 268° |
| 2026-04-15 10:59 | 51.61163 | 127.00573 | 34841 ft | 341 kts | 281° |
| 2026-04-15 10:59 | 51.61850 | 126.96929 | 34840 ft | 342 kts | 294° |
| 2026-04-15 11:00 | 51.63101 | 126.93662 | 34839 ft | 346 kts | 307° |
| 2026-04-15 11:00 | 51.64858 | 126.90976 | 34837 ft | 353 kts | 320° |
| 2026-04-15 11:00 | 51.67041 | 126.89099 | 34837 ft | 362 kts | 335° |
| 2026-04-15 11:00 | 51.69528 | 126.88175 | 34840 ft | 372 kts | 346° |
| 2026-04-15 11:01 | 51.74741 | 126.87560 | 34841 ft | 379 kts | 351° |
| 2026-04-15 11:01 | 51.80026 | 126.87404 | 34843 ft | 381 kts | 352° |
| 2026-04-15 11:02 | 51.85314 | 126.88799 | 34839 ft | 401 kts | 19° |
| 2026-04-15 11:02 | 51.87679 | 126.91319 | 34836 ft | 415 kts | 38° |
| 2026-04-15 11:02 | 51.89479 | 126.95019 | 34834 ft | 426 kts | 59° |
| 2026-04-15 11:03 | 51.90471 | 126.99571 | 34866 ft | 436 kts | 80° |
| 2026-04-15 11:03 | 51.90514 | 127.04494 | 34871 ft | 440 kts | 101° |
| 2026-04-15 11:03 | 51.89558 | 127.09164 | 34870 ft | 437 kts | 123° |
| 2026-04-15 11:03 | 51.87744 | 127.13033 | 34868 ft | 429 kts | 143° |
| 2026-04-15 11:04 | 51.85324 | 127.15720 | 34870 ft | 418 kts | 163° |
| 2026-04-15 11:04 | 51.82590 | 127.17019 | 34870 ft | 404 kts | 180° |
| 2026-04-15 11:04 | 51.77007 | 127.17740 | 34869 ft | 401 kts | 185° |
| 2026-04-15 11:05 | 51.71434 | 127.17947 | 34867 ft | 400 kts | 186° |
| 2026-04-15 11:05 | 51.68686 | 127.17688 | 34857 ft | 389 kts | 199° |
| 2026-04-15 11:05 | 51.66180 | 127.16328 | 34854 ft | 375 kts | 215° |
| 2026-04-15 11:06 | 51.64066 | 127.14017 | 34849 ft | 362 kts | 230° |
| 2026-04-15 11:06 | 51.62466 | 127.10977 | 34845 ft | 352 kts | 244° |
| 2026-04-15 11:06 | 51.61459 | 127.07456 | 34843 ft | 344 kts | 258° |
| 2026-04-15 11:06 | 51.61063 | 127.03691 | 34841 ft | 340 kts | 271° |
| 2026-04-15 11:07 | 51.61272 | 126.99971 | 34840 ft | 339 kts | 283° |
| 2026-04-15 11:07 | 51.62059 | 126.96399 | 34839 ft | 341 kts | 296° |
| 2026-04-15 11:07 | 51.63399 | 126.93230 | 34838 ft | 346 kts | 309° |
| 2026-04-15 11:07 | 51.65231 | 126.90682 | 34837 ft | 353 kts | 323° |
| 2026-04-15 11:08 | 51.67471 | 126.88963 | 34834 ft | 363 kts | 337° |
| 2026-04-15 11:08 | 51.69988 | 126.88180 | 34838 ft | 372 kts | 346° |
| 2026-04-15 11:08 | 51.75194 | 126.87633 | 34840 ft | 378 kts | 351° |
| 2026-04-15 11:09 | 51.80468 | 126.87484 | 34841 ft | 379 kts | 352° |
| 2026-04-15 11:09 | 51.83125 | 126.87783 | 34834 ft | 389 kts | 6° |
| 2026-04-15 11:09 | 51.85715 | 126.89261 | 34836 ft | 403 kts | 22° |
| 2026-04-15 11:10 | 51.87993 | 126.91995 | 34833 ft | 415 kts | 41° |
| 2026-04-15 11:10 | 51.89671 | 126.95852 | 34833 ft | 426 kts | 62° |
| 2026-04-15 11:10 | 51.90507 | 127.00495 | 34872 ft | 437 kts | 83° |
| 2026-04-15 11:10 | 51.90370 | 127.05404 | 34872 ft | 439 kts | 105° |
| 2026-04-15 11:11 | 51.89246 | 127.09953 | 34869 ft | 435 kts | 126° |
| 2026-04-15 11:11 | 51.87307 | 127.13637 | 34868 ft | 426 kts | 146° |
| 2026-04-15 11:11 | 51.84819 | 127.16073 | 34871 ft | 414 kts | 166° |
| 2026-04-15 11:11 | 51.82068 | 127.17133 | 34874 ft | 403 kts | 180° |
| 2026-04-15 11:12 | 51.76502 | 127.17773 | 34870 ft | 400 kts | 185° |
| 2026-04-15 11:12 | 51.70939 | 127.17970 | 34864 ft | 399 kts | 187° |
| 2026-04-15 11:13 | 51.68224 | 127.17542 | 34854 ft | 386 kts | 202° |
| 2026-04-15 11:13 | 51.65781 | 127.16005 | 34850 ft | 371 kts | 218° |
| 2026-04-15 11:13 | 51.63767 | 127.13541 | 34846 ft | 359 kts | 233° |
| 2026-04-15 11:13 | 51.62287 | 127.10396 | 34843 ft | 349 kts | 246° |
| 2026-04-15 11:14 | 51.61393 | 127.06818 | 34841 ft | 343 kts | 260° |
| 2026-04-15 11:14 | 51.61106 | 127.03047 | 34840 ft | 339 kts | 273° |
| 2026-04-15 11:14 | 51.61426 | 126.99311 | 34839 ft | 338 kts | 286° |
| 2026-04-15 11:14 | 51.62333 | 126.95815 | 34838 ft | 341 kts | 298° |
| 2026-04-15 11:15 | 51.63753 | 126.92803 | 34838 ft | 346 kts | 311° |
| 2026-04-15 11:15 | 51.65667 | 126.90402 | 34836 ft | 354 kts | 326° |
| 2026-04-15 11:15 | 51.67965 | 126.88876 | 34834 ft | 364 kts | 340° |
| 2026-04-15 11:15 | 51.70495 | 126.88225 | 34839 ft | 371 kts | 347° |
| 2026-04-15 11:16 | 51.75705 | 126.87763 | 34840 ft | 378 kts | 352° |
| 2026-04-15 11:16 | 51.80972 | 126.87628 | 34842 ft | 380 kts | 353° |
| 2026-04-15 11:17 | 51.83626 | 126.88130 | 34836 ft | 391 kts | 8° |
| 2026-04-15 11:17 | 51.86172 | 126.89842 | 34836 ft | 404 kts | 26° |
| 2026-04-15 11:17 | 51.88346 | 126.92816 | 34835 ft | 417 kts | 46° |
| 2026-04-15 11:17 | 51.89857 | 126.96865 | 34837 ft | 427 kts | 67° |
| 2026-04-15 11:18 | 51.90485 | 127.01610 | 34872 ft | 437 kts | 88° |
| 2026-04-15 11:18 | 51.90128 | 127.06488 | 34867 ft | 438 kts | 109° |
| 2026-04-15 11:18 | 51.88822 | 127.10890 | 34869 ft | 433 kts | 131° |
| 2026-04-15 11:18 | 51.86736 | 127.14314 | 34871 ft | 423 kts | 151° |
| 2026-04-15 11:19 | 51.84164 | 127.16425 | 34871 ft | 410 kts | 171° |
| 2026-04-15 11:19 | 51.81400 | 127.17241 | 34873 ft | 402 kts | 181° |
| 2026-04-15 11:19 | 51.75836 | 127.17804 | 34869 ft | 399 kts | 185° |
| 2026-04-15 11:20 | 51.70289 | 127.17971 | 34867 ft | 397 kts | 189° |
| 2026-04-15 11:20 | 51.67622 | 127.17272 | 34859 ft | 382 kts | 206° |
| 2026-04-15 11:20 | 51.66023 | 127.16199 | 34858 ft | 372 kts | 216° |
| 2026-04-15 11:21 | 51.63377 | 127.12845 | 34850 ft | 356 kts | 236° |
| 2026-04-15 11:21 | 51.62031 | 127.09580 | 34848 ft | 347 kts | 250° |
| 2026-04-15 11:21 | 51.61283 | 127.05937 | 34846 ft | 341 kts | 263° |
| 2026-04-15 11:21 | 51.61148 | 127.02153 | 34845 ft | 339 kts | 276° |
| 2026-04-15 11:22 | 51.61611 | 126.98449 | 34844 ft | 339 kts | 289° |
| 2026-04-15 11:22 | 51.62655 | 126.95045 | 34842 ft | 342 kts | 302° |
| 2026-04-15 11:22 | 51.64224 | 126.92149 | 34840 ft | 348 kts | 315° |
| 2026-04-15 11:22 | 51.65519 | 126.90613 | 34839 ft | 353 kts | 324° |
| 2026-04-15 11:23 | 51.67795 | 126.89015 | 34837 ft | 363 kts | 339° |
| 2026-04-15 11:23 | 51.70310 | 126.88311 | 34840 ft | 370 kts | 347° |
| 2026-04-15 11:23 | 51.75509 | 126.87811 | 34841 ft | 377 kts | 351° |
| 2026-04-15 11:24 | 51.80765 | 126.87667 | 34844 ft | 379 kts | 352° |
| 2026-04-15 11:24 | 51.83418 | 126.88087 | 34838 ft | 390 kts | 7° |
| 2026-04-15 11:24 | 51.85975 | 126.89710 | 34838 ft | 403 kts | 25° |
| 2026-04-15 11:25 | 51.88184 | 126.92589 | 34836 ft | 416 kts | 45° |
| 2026-04-15 11:25 | 51.89749 | 126.96586 | 34836 ft | 427 kts | 65° |
| 2026-04-15 11:25 | 51.90446 | 127.01273 | 34861 ft | 435 kts | 86° |
| 2026-04-15 11:25 | 51.90170 | 127.06147 | 34870 ft | 438 kts | 108° |
| 2026-04-15 11:26 | 51.88926 | 127.10592 | 34867 ft | 433 kts | 129° |
| 2026-04-15 11:26 | 51.86928 | 127.14053 | 34871 ft | 423 kts | 149° |
| 2026-04-15 11:26 | 51.84392 | 127.16298 | 34869 ft | 411 kts | 169° |
| 2026-04-15 11:26 | 51.81642 | 127.17202 | 34874 ft | 401 kts | 181° |
| 2026-04-15 11:27 | 51.76091 | 127.17791 | 34870 ft | 398 kts | 185° |
| 2026-04-15 11:27 | 51.70556 | 127.17963 | 34866 ft | 397 kts | 188° |
| 2026-04-15 11:28 | 51.67879 | 127.17381 | 34857 ft | 382 kts | 204° |
| 2026-04-15 11:28 | 51.65496 | 127.15703 | 34853 ft | 368 kts | 220° |
| 2026-04-15 11:28 | 51.63563 | 127.13137 | 34848 ft | 356 kts | 234° |
| 2026-04-15 11:28 | 51.62174 | 127.09917 | 34847 ft | 347 kts | 249° |
| 2026-04-15 11:29 | 51.61381 | 127.06306 | 34844 ft | 341 kts | 262° |
| 2026-04-15 11:29 | 51.61200 | 127.02537 | 34842 ft | 338 kts | 275° |
| 2026-04-15 11:29 | 51.61618 | 126.98833 | 34841 ft | 338 kts | 288° |
| 2026-04-15 11:29 | 51.62610 | 126.95406 | 34840 ft | 341 kts | 301° |
| 2026-04-15 11:30 | 51.64135 | 126.92467 | 34839 ft | 347 kts | 314° |
| 2026-04-15 11:30 | 51.66133 | 126.90236 | 34837 ft | 355 kts | 328° |
| 2026-04-15 11:30 | 51.68496 | 126.88918 | 34837 ft | 366 kts | 343° |
| 2026-04-15 11:30 | 51.71043 | 126.88374 | 34840 ft | 372 kts | 348° |
| 2026-04-15 11:31 | 51.76214 | 126.87970 | 34843 ft | 377 kts | 352° |
| 2026-04-15 11:31 | 51.81461 | 126.87855 | 34842 ft | 380 kts | 356° |
| 2026-04-15 11:32 | 51.84103 | 126.88595 | 34839 ft | 393 kts | 12° |
| 2026-04-15 11:32 | 51.86589 | 126.90571 | 34838 ft | 406 kts | 30° |
| 2026-04-15 11:32 | 51.88636 | 126.93792 | 34836 ft | 419 kts | 51° |
| 2026-04-15 11:32 | 51.89962 | 126.98024 | 34835 ft | 428 kts | 72° |
| 2026-04-15 11:33 | 51.90369 | 127.02824 | 34873 ft | 436 kts | 93° |
| 2026-04-15 11:33 | 51.89803 | 127.07628 | 34867 ft | 436 kts | 114° |
| 2026-04-15 11:33 | 51.88305 | 127.11835 | 34871 ft | 429 kts | 135° |
| 2026-04-15 11:33 | 51.86091 | 127.14963 | 34868 ft | 419 kts | 156° |
| 2026-04-15 11:34 | 51.83453 | 127.16740 | 34870 ft | 405 kts | 175° |
| 2026-04-15 11:34 | 51.80693 | 127.17371 | 34870 ft | 400 kts | 182° |
| 2026-04-15 11:34 | 51.75154 | 127.17840 | 34868 ft | 398 kts | 186° |
| 2026-04-15 11:35 | 51.69633 | 127.17912 | 34859 ft | 392 kts | 194° |
| 2026-04-15 11:35 | 51.67042 | 127.16936 | 34856 ft | 376 kts | 210° |
| 2026-04-15 11:35 | 51.64801 | 127.14931 | 34853 ft | 363 kts | 225° |
| 2026-04-15 11:36 | 51.63049 | 127.12117 | 34849 ft | 352 kts | 240° |
| 2026-04-15 11:36 | 51.61857 | 127.08745 | 34847 ft | 344 kts | 253° |
| 2026-04-15 11:36 | 51.61266 | 127.05063 | 34845 ft | 338 kts | 266° |
| 2026-04-15 11:36 | 51.61289 | 127.01306 | 34842 ft | 336 kts | 279° |
| 2026-04-15 11:37 | 51.61911 | 126.97692 | 34841 ft | 337 kts | 292° |
| 2026-04-15 11:37 | 51.63099 | 126.94426 | 34839 ft | 341 kts | 306° |
| 2026-04-15 11:37 | 51.64788 | 126.91719 | 34838 ft | 347 kts | 319° |
| 2026-04-15 11:37 | 51.66904 | 126.89769 | 34836 ft | 357 kts | 333° |
| 2026-04-15 11:38 | 51.69343 | 126.88773 | 34838 ft | 367 kts | 345° |
| 2026-04-15 11:38 | 51.71895 | 126.88338 | 34838 ft | 371 kts | 349° |
| 2026-04-15 11:38 | 51.77091 | 126.88033 | 34841 ft | 375 kts | 352° |
| 2026-04-15 11:39 | 51.82334 | 126.88059 | 34836 ft | 383 kts | 1° |
| 2026-04-15 11:39 | 51.84937 | 126.89188 | 34834 ft | 395 kts | 18° |
| 2026-04-15 11:39 | 51.87300 | 126.91573 | 34833 ft | 409 kts | 37° |
| 2026-04-15 11:40 | 51.89127 | 126.95158 | 34834 ft | 420 kts | 57° |
| 2026-04-15 11:40 | 51.90169 | 126.99632 | 34872 ft | 432 kts | 78° |
| 2026-04-15 11:40 | 51.90263 | 127.04437 | 34869 ft | 436 kts | 100° |
| 2026-04-15 11:40 | 51.89377 | 127.09095 | 34871 ft | 434 kts | 121° |
| 2026-04-15 11:41 | 51.87615 | 127.12987 | 34873 ft | 426 kts | 142° |
| 2026-04-15 11:41 | 51.85236 | 127.15686 | 34867 ft | 414 kts | 162° |
| 2026-04-15 11:41 | 51.82537 | 127.17003 | 34870 ft | 401 kts | 179° |
| 2026-04-15 11:41 | 51.79774 | 127.17489 | 34866 ft | 399 kts | 183° |
| 2026-04-15 11:42 | 51.74249 | 127.17869 | 34869 ft | 397 kts | 186° |
| 2026-04-15 11:42 | 51.68766 | 127.17718 | 34855 ft | 385 kts | 199° |
| 2026-04-15 11:43 | 51.66280 | 127.16387 | 34853 ft | 371 kts | 215° |
| 2026-04-15 11:43 | 51.64195 | 127.14097 | 34849 ft | 358 kts | 230° |
| 2026-04-15 11:43 | 51.62628 | 127.11079 | 34846 ft | 348 kts | 244° |
| 2026-04-15 11:43 | 51.61641 | 127.07587 | 34843 ft | 340 kts | 258° |
| 2026-04-15 11:44 | 51.61259 | 127.03867 | 34851 ft | 337 kts | 271° |
| 2026-04-15 11:44 | 51.61484 | 127.00123 | 34865 ft | 338 kts | 284° |
| 2026-04-15 11:44 | 51.62308 | 126.96585 | 34865 ft | 340 kts | 297° |
| 2026-04-15 11:44 | 51.63688 | 126.93487 | 34866 ft | 344 kts | 310° |
| 2026-04-15 11:45 | 51.65552 | 126.91026 | 34864 ft | 351 kts | 324° |
| 2026-04-15 11:45 | 51.67807 | 126.89414 | 34863 ft | 361 kts | 339° |
| 2026-04-15 11:45 | 51.72889 | 126.88370 | 34867 ft | 373 kts | 350° |
| 2026-04-15 11:46 | 51.78108 | 126.88141 | 34868 ft | 376 kts | 352° |
| 2026-04-15 11:46 | 51.83363 | 126.88509 | 34864 ft | 388 kts | 8° |
| 2026-04-15 11:47 | 51.85901 | 126.90158 | 34864 ft | 401 kts | 25° |
| 2026-04-15 11:47 | 51.88083 | 126.93065 | 34862 ft | 414 kts | 45° |
| 2026-04-15 11:47 | 51.89613 | 126.97059 | 34863 ft | 425 kts | 66° |
| 2026-04-15 11:47 | 51.90262 | 127.01762 | 34901 ft | 434 kts | 88° |
| 2026-04-15 11:48 | 51.89914 | 127.06607 | 34896 ft | 435 kts | 109° |
| 2026-04-15 11:48 | 51.88609 | 127.10982 | 34897 ft | 430 kts | 131° |
| 2026-04-15 11:48 | 51.86539 | 127.14376 | 34897 ft | 420 kts | 151° |
| 2026-04-15 11:48 | 51.83978 | 127.16476 | 34897 ft | 408 kts | 171° |
| 2026-04-15 11:49 | 51.78515 | 127.17611 | 34896 ft | 397 kts | 184° |
| 2026-04-15 11:49 | 51.72999 | 127.17899 | 34896 ft | 396 kts | 186° |
| 2026-04-15 11:50 | 51.67601 | 127.17247 | 34890 ft | 379 kts | 206° |
| 2026-04-15 11:50 | 51.65277 | 127.15457 | 34885 ft | 365 kts | 222° |
| 2026-04-15 11:50 | 51.63414 | 127.12808 | 34881 ft | 353 kts | 237° |
| 2026-04-15 11:51 | 51.62105 | 127.09543 | 34881 ft | 344 kts | 251° |
| 2026-04-15 11:51 | 51.61394 | 127.05920 | 34874 ft | 338 kts | 264° |
| 2026-04-15 11:51 | 51.61292 | 127.02172 | 34871 ft | 335 kts | 277° |
| 2026-04-15 11:51 | 51.61788 | 126.98521 | 34869 ft | 335 kts | 290° |
| 2026-04-15 11:52 | 51.62853 | 126.95177 | 34867 ft | 339 kts | 303° |
| 2026-04-15 11:52 | 51.64440 | 126.92347 | 34867 ft | 345 kts | 316° |
| 2026-04-15 11:52 | 51.66482 | 126.90237 | 34865 ft | 354 kts | 330° |
| 2026-04-15 11:52 | 51.68867 | 126.89062 | 34866 ft | 365 kts | 344° |
| 2026-04-15 11:53 | 51.73991 | 126.88317 | 34866 ft | 373 kts | 351° |
| 2026-04-15 11:53 | 51.79204 | 126.88132 | 34870 ft | 376 kts | 352° |
| 2026-04-15 11:54 | 51.84450 | 126.89053 | 34865 ft | 393 kts | 14° |
| 2026-04-15 11:54 | 51.86877 | 126.91223 | 34864 ft | 407 kts | 33° |
| 2026-04-15 11:54 | 51.88811 | 126.94635 | 34863 ft | 419 kts | 54° |
| 2026-04-15 11:55 | 51.89980 | 126.98982 | 34866 ft | 427 kts | 76° |
| 2026-04-15 11:55 | 51.90228 | 127.03805 | 34899 ft | 435 kts | 96° |
| 2026-04-15 11:55 | 51.89487 | 127.08520 | 34896 ft | 433 kts | 118° |
| 2026-04-15 11:55 | 51.87850 | 127.12547 | 34793 ft | 427 kts | 139° |
| 2026-04-15 11:56 | 51.85555 | 127.15425 | 34543 ft | 412 kts | 160° |
| 2026-04-15 11:56 | 51.82911 | 127.16915 | 34291 ft | 396 kts | 178° |
| 2026-04-15 11:56 | 51.80202 | 127.17438 | 34051 ft | 391 kts | 183° |
| 2026-04-15 11:56 | 51.77491 | 127.17708 | 33791 ft | 391 kts | 185° |
| 2026-04-15 11:57 | 51.74753 | 127.17835 | 33542 ft | 393 kts | 186° |
| 2026-04-15 11:57 | 51.69421 | 127.17883 | 32841 ft | 379 kts | 196° |
| 2026-04-15 11:57 | 51.66937 | 127.16803 | 32076 ft | 364 kts | 213° |
| 2026-04-15 11:58 | 51.64844 | 127.14695 | 31328 ft | 348 kts | 229° |
| 2026-04-15 11:58 | 51.63266 | 127.11868 | 30576 ft | 333 kts | 243° |
| 2026-04-15 11:58 | 51.62263 | 127.08593 | 29819 ft | 322 kts | 257° |
| 2026-04-15 11:58 | 51.61847 | 127.05118 | 29077 ft | 314 kts | 270° |
| 2026-04-15 11:59 | 51.61996 | 127.01644 | 28320 ft | 310 kts | 282° |
| 2026-04-15 11:59 | 51.62675 | 126.98368 | 27564 ft | 309 kts | 294° |
| 2026-04-15 11:59 | 51.63844 | 126.95468 | 26807 ft | 311 kts | 307° |
| 2026-04-15 11:59 | 51.65444 | 126.93111 | 26052 ft | 315 kts | 320° |
| 2026-04-15 12:00 | 51.67401 | 126.91462 | 25295 ft | 322 kts | 335° |
| 2026-04-15 12:00 | 51.69607 | 126.90654 | 24542 ft | 328 kts | 346° |
| 2026-04-15 12:00 | 51.71890 | 126.90425 | 23778 ft | 334 kts | 360° |
| 2026-04-15 12:00 | 51.74166 | 126.91347 | 23026 ft | 343 kts | 18° |
| 2026-04-15 12:01 | 51.76232 | 126.93334 | 22302 ft | 351 kts | 36° |
| 2026-04-15 12:01 | 51.77894 | 126.96192 | 22110 ft | 347 kts | 52° |
| 2026-04-15 12:01 | 51.79031 | 126.99585 | 21982 ft | 341 kts | 68° |
| 2026-04-15 12:01 | 51.79552 | 127.03272 | 21847 ft | 333 kts | 86° |
| 2026-04-15 12:02 | 51.79416 | 127.06956 | 21621 ft | 327 kts | 104° |
| 2026-04-15 12:02 | 51.78665 | 127.10378 | 21376 ft | 321 kts | 121° |
| 2026-04-15 12:02 | 51.77415 | 127.13311 | 21120 ft | 315 kts | 137° |
| 2026-04-15 12:02 | 51.75780 | 127.15591 | 20873 ft | 307 kts | 152° |
| 2026-04-15 12:03 | 51.73896 | 127.17092 | 20621 ft | 299 kts | 167° |
| 2026-04-15 12:03 | 51.71896 | 127.17815 | 20371 ft | 293 kts | 177° |
| 2026-04-15 12:03 | 51.69793 | 127.18416 | 20112 ft | 324 kts | 173° |
| 2026-04-15 12:03 | 51.67545 | 127.19267 | 19881 ft | 337 kts | 169° |
| 2026-04-15 12:04 | 51.65276 | 127.20285 | 19627 ft | 338 kts | 168° |
| 2026-04-15 12:04 | 51.63017 | 127.21393 | 19363 ft | 339 kts | 166° |
| 2026-04-15 12:04 | 51.60769 | 127.22521 | 19113 ft | 337 kts | 166° |
| 2026-04-15 12:04 | 51.58535 | 127.23635 | 18865 ft | 336 kts | 167° |
| 2026-04-15 12:05 | 51.56309 | 127.24725 | 18611 ft | 333 kts | 167° |
| 2026-04-15 12:05 | 51.54126 | 127.25788 | 18339 ft | 331 kts | 167° |
| 2026-04-15 12:05 | 51.51894 | 127.26860 | 18098 ft | 330 kts | 167° |
| 2026-04-15 12:05 | 51.49728 | 127.27892 | 17854 ft | 329 kts | 167° |
| 2026-04-15 12:06 | 51.47538 | 127.28923 | 17603 ft | 327 kts | 167° |
| 2026-04-15 12:06 | 51.45363 | 127.29948 | 17352 ft | 325 kts | 167° |
| 2026-04-15 12:06 | 51.43196 | 127.30967 | 17104 ft | 324 kts | 167° |
| 2026-04-15 12:06 | 51.41041 | 127.31980 | 16851 ft | 322 kts | 167° |
| 2026-04-15 12:07 | 51.38894 | 127.32992 | 16594 ft | 321 kts | 167° |
| 2026-04-15 12:07 | 51.36757 | 127.34000 | 16351 ft | 319 kts | 167° |
| 2026-04-15 12:07 | 51.34631 | 127.35003 | 16101 ft | 318 kts | 167° |
| 2026-04-15 12:07 | 51.32514 | 127.36006 | 15850 ft | 317 kts | 167° |
| 2026-04-15 12:08 | 51.30407 | 127.37001 | 15599 ft | 315 kts | 166° |
| 2026-04-15 12:08 | 51.28310 | 127.37988 | 15350 ft | 314 kts | 167° |
| 2026-04-15 12:08 | 51.26218 | 127.38973 | 15098 ft | 312 kts | 167° |
| 2026-04-15 12:08 | 51.24138 | 127.39948 | 14842 ft | 311 kts | 167° |
| 2026-04-15 12:09 | 51.22072 | 127.40913 | 14604 ft | 308 kts | 167° |
| 2026-04-15 12:09 | 51.20030 | 127.41868 | 14305 ft | 305 kts | 166° |
| 2026-04-15 12:09 | 51.17999 | 127.42820 | 13943 ft | 304 kts | 166° |
| 2026-04-15 12:09 | 51.15966 | 127.43770 | 13567 ft | 304 kts | 167° |
| 2026-04-15 12:10 | 51.13935 | 127.44713 | 13193 ft | 304 kts | 167° |
| 2026-04-15 12:10 | 51.11907 | 127.45659 | 12813 ft | 303 kts | 166° |
| 2026-04-15 12:10 | 51.09885 | 127.46603 | 12432 ft | 302 kts | 166° |
| 2026-04-15 12:10 | 51.07871 | 127.47543 | 12040 ft | 301 kts | 166° |
| 2026-04-15 12:11 | 51.05860 | 127.48478 | 11662 ft | 300 kts | 167° |
| 2026-04-15 12:11 | 51.03856 | 127.49401 | 11281 ft | 299 kts | 166° |
| 2026-04-15 12:11 | 51.01860 | 127.50316 | 10881 ft | 299 kts | 166° |
| 2026-04-15 12:11 | 50.99865 | 127.51239 | 10497 ft | 298 kts | 166° |
| 2026-04-15 12:12 | 50.97890 | 127.52161 | 10257 ft | 290 kts | 165° |
| 2026-04-15 12:12 | 50.95992 | 127.53052 | 10077 ft | 279 kts | 166° |
| 2026-04-15 12:12 | 50.94134 | 127.53921 | 9714 ft | 277 kts | 165° |
| 2026-04-15 12:12 | 50.92295 | 127.54782 | 9382 ft | 273 kts | 165° |
| 2026-04-15 12:13 | 50.90447 | 127.55357 | 9031 ft | 269 kts | 176° |
| 2026-04-15 12:13 | 50.88580 | 127.55254 | 8712 ft | 266 kts | 188° |
| 2026-04-15 12:13 | 50.86750 | 127.54768 | 8358 ft | 265 kts | 188° |
| 2026-04-15 12:13 | 50.85548 | 127.54456 | 8105 ft | 265 kts | 188° |
| 2026-04-15 12:14 | 50.83738 | 127.53992 | 7742 ft | 262 kts | 188° |
| 2026-04-15 12:14 | 50.81942 | 127.53532 | 7345 ft | 261 kts | 188° |
| 2026-04-15 12:14 | 50.80154 | 127.53072 | 6962 ft | 260 kts | 188° |
| 2026-04-15 12:14 | 50.77787 | 127.52462 | 6358 ft | 260 kts | 188° |
| 2026-04-15 12:15 | 50.76030 | 127.52007 | 6167 ft | 250 kts | 188° |
| 2026-04-15 12:15 | 50.74353 | 127.51579 | 6030 ft | 238 kts | 188° |
| 2026-04-15 12:15 | 50.73264 | 127.51301 | 5954 ft | 231 kts | 188° |
| 2026-04-15 12:15 | 50.71721 | 127.50906 | 5849 ft | 218 kts | 188° |
| 2026-04-15 12:16 | 50.70262 | 127.50529 | 5755 ft | 208 kts | 188° |
| 2026-04-15 12:16 | 50.68847 | 127.50166 | 5666 ft | 205 kts | 188° |
| 2026-04-15 12:16 | 50.67466 | 127.49635 | 5575 ft | 206 kts | 202° |
| 2026-04-15 12:16 | 50.66297 | 127.48279 | 5324 ft | 214 kts | 222° |
| 2026-04-15 12:17 | 50.65312 | 127.46589 | 5023 ft | 211 kts | 221° |
| 2026-04-15 12:17 | 50.64312 | 127.44899 | 4730 ft | 211 kts | 221° |
| 2026-04-15 12:17 | 50.63284 | 127.43258 | 4434 ft | 208 kts | 211° |
| 2026-04-15 12:17 | 50.62017 | 127.42289 | 4155 ft | 202 kts | 194° |
| 2026-04-15 12:18 | 50.60682 | 127.41608 | 3880 ft | 201 kts | 194° |
| 2026-04-15 12:18 | 50.59352 | 127.40917 | 3602 ft | 201 kts | 194° |
| 2026-04-15 12:18 | 50.58028 | 127.40226 | 3310 ft | 199 kts | 194° |
| 2026-04-15 12:18 | 50.56736 | 127.39551 | 3142 ft | 192 kts | 193° |
| 2026-04-15 12:19 | 50.55481 | 127.38897 | 2914 ft | 189 kts | 192° |
| 2026-04-15 12:19 | 50.54238 | 127.38260 | 2668 ft | 187 kts | 190° |
| 2026-04-15 12:19 | 50.53004 | 127.38211 | 2538 ft | 174 kts | 167° |
| 2026-04-15 12:19 | 50.51824 | 127.38585 | 2244 ft | 173 kts | 165° |
| 2026-04-15 12:20 | 50.50678 | 127.38959 | 1942 ft | 162 kts | 166° |
| 2026-04-15 12:20 | 50.49623 | 127.39300 | 1737 ft | 147 kts | 166° |
| 2026-04-15 12:20 | 50.48656 | 127.39614 | 1526 ft | 138 kts | 166° |
| 2026-04-15 12:20 | 50.47729 | 127.39916 | 1345 ft | 135 kts | 166° |
| 2026-04-15 12:21 | 50.46814 | 127.40213 | 1163 ft | 134 kts | 166° |
| 2026-04-15 12:21 | 50.45902 | 127.40507 | 997 ft | 133 kts | 166° |
| 2026-04-15 12:21 | 50.44994 | 127.40806 | 861 ft | 134 kts | 166° |
| 2026-04-15 12:21 | 50.44085 | 127.41103 | 711 ft | 133 kts | 167° |
| 2026-04-15 12:22 | 50.43220 | 127.41386 | 661 ft | 114 kts | 168° |
| 2026-04-15 12:22 | 50.42428 | 127.41685 | 712 ft | 136 kts | 162° |
| 2026-04-15 12:22 | 50.41481 | 127.42139 | 1229 ft | 144 kts | 162° |
| 2026-04-15 12:22 | 50.40498 | 127.42482 | 1732 ft | 146 kts | 167° |
| 2026-04-15 12:23 | 50.39493 | 127.42771 | 2227 ft | 146 kts | 167° |
| 2026-04-15 12:23 | 50.38416 | 127.43079 | 2447 ft | 167 kts | 168° |
| 2026-04-15 12:23 | 50.37167 | 127.43444 | 2500 ft | 199 kts | 166° |
| 2026-04-15 12:23 | 50.35950 | 127.44413 | 2489 ft | 199 kts | 130° |
| 2026-04-15 12:24 | 50.35438 | 127.46438 | 2510 ft | 206 kts | 102° |
| 2026-04-15 12:24 | 50.35327 | 127.48678 | 2510 ft | 206 kts | 97° |
| 2026-04-15 12:24 | 50.35288 | 127.50915 | 2509 ft | 206 kts | 96° |
| 2026-04-15 12:24 | 50.35234 | 127.53148 | 2510 ft | 204 kts | 97° |
| 2026-04-15 12:25 | 50.35148 | 127.55372 | 2510 ft | 205 kts | 99° |
| 2026-04-15 12:25 | 50.35168 | 127.57617 | 2509 ft | 211 kts | 80° |
| 2026-04-15 12:25 | 50.35924 | 127.59626 | 2511 ft | 223 kts | 47° |
| 2026-04-15 12:25 | 50.37320 | 127.60686 | 2510 ft | 235 kts | 10° |
| 2026-04-15 12:26 | 50.38984 | 127.60410 | 2518 ft | 242 kts | 349° |
| 2026-04-15 12:26 | 50.40622 | 127.59806 | 2514 ft | 242 kts | 348° |
| 2026-04-15 12:26 | 50.42253 | 127.59173 | 2509 ft | 241 kts | 348° |
| 2026-04-15 12:26 | 50.43874 | 127.58541 | 2512 ft | 240 kts | 348° |
| 2026-04-15 12:27 | 50.45493 | 127.57918 | 2508 ft | 239 kts | 348° |
| 2026-04-15 12:27 | 50.47093 | 127.57306 | 2508 ft | 240 kts | 348° |
| 2026-04-15 12:27 | 50.48716 | 127.56685 | 2509 ft | 240 kts | 348° |
| 2026-04-15 12:27 | 50.50331 | 127.56071 | 2514 ft | 239 kts | 348° |
| 2026-04-15 12:28 | 50.51956 | 127.55456 | 2510 ft | 241 kts | 348° |
| 2026-04-15 12:28 | 50.53584 | 127.54844 | 2513 ft | 240 kts | 348° |
| 2026-04-15 12:28 | 50.55207 | 127.54236 | 2511 ft | 239 kts | 348° |
| 2026-04-15 12:28 | 50.56827 | 127.53626 | 2510 ft | 240 kts | 348° |
| 2026-04-15 12:29 | 50.58444 | 127.53016 | 2512 ft | 240 kts | 348° |
| 2026-04-15 12:29 | 50.60071 | 127.52399 | 2509 ft | 240 kts | 348° |
| 2026-04-15 12:29 | 50.61692 | 127.51780 | 2508 ft | 240 kts | 346° |
| 2026-04-15 12:29 | 50.63154 | 127.50557 | 2511 ft | 240 kts | 314° |
| 2026-04-15 12:30 | 50.64003 | 127.48360 | 2509 ft | 235 kts | 280° |
| 2026-04-15 12:30 | 50.64020 | 127.45870 | 2512 ft | 225 kts | 249° |
| 2026-04-15 12:30 | 50.63300 | 127.43770 | 2513 ft | 214 kts | 222° |
| 2026-04-15 12:30 | 50.62146 | 127.42388 | 2508 ft | 207 kts | 200° |
| 2026-04-15 12:31 | 50.60801 | 127.41644 | 2509 ft | 205 kts | 193° |
| 2026-04-15 12:31 | 50.59444 | 127.40948 | 2512 ft | 205 kts | 193° |
| 2026-04-15 12:31 | 50.58086 | 127.40245 | 2504 ft | 206 kts | 194° |
| 2026-04-15 12:31 | 50.56725 | 127.39536 | 2513 ft | 206 kts | 194° |
| 2026-04-15 12:32 | 50.55366 | 127.38832 | 2513 ft | 205 kts | 193° |
| 2026-04-15 12:32 | 50.53992 | 127.38191 | 2512 ft | 205 kts | 184° |
| 2026-04-15 12:32 | 50.52602 | 127.38318 | 2514 ft | 200 kts | 166° |
| 2026-04-15 12:32 | 50.51235 | 127.38769 | 2508 ft | 201 kts | 166° |
| 2026-04-15 12:33 | 50.49854 | 127.39228 | 2165 ft | 204 kts | 165° |
| 2026-04-15 12:33 | 50.48474 | 127.39682 | 1714 ft | 203 kts | 166° |
| 2026-04-15 12:33 | 50.47084 | 127.40129 | 1255 ft | 201 kts | 167° |
| 2026-04-15 12:33 | 50.45787 | 127.40548 | 992 ft | 180 kts | 167° |
| 2026-04-15 12:34 | 50.44622 | 127.40926 | 787 ft | 161 kts | 167° |
| 2026-04-15 12:34 | 50.43598 | 127.41257 | 1157 ft | 146 kts | 166° |
| 2026-04-15 12:34 | 50.42628 | 127.41573 | 1313 ft | 140 kts | 166° |
| 2026-04-15 12:34 | 50.41682 | 127.41881 | 1463 ft | 138 kts | 166° |
| 2026-04-15 12:35 | 50.40755 | 127.42182 | 1620 ft | 138 kts | 166° |
| 2026-04-15 12:35 | 50.39804 | 127.42489 | 1784 ft | 140 kts | 166° |
| 2026-04-15 12:35 | 50.38866 | 127.42793 | 2282 ft | 139 kts | 166° |
| 2026-04-15 12:35 | 50.37851 | 127.43126 | 2493 ft | 164 kts | 165° |
| 2026-04-15 12:36 | 50.36646 | 127.43613 | 2458 ft | 190 kts | 153° |
| 2026-04-15 12:36 | 50.35735 | 127.45172 | 2480 ft | 207 kts | 113° |
| 2026-04-15 12:36 | 50.35437 | 127.47410 | 2507 ft | 212 kts | 99° |
| 2026-04-15 12:36 | 50.35346 | 127.49704 | 2509 ft | 213 kts | 97° |
| 2026-04-15 12:37 | 50.35272 | 127.52024 | 2505 ft | 214 kts | 97° |
| 2026-04-15 12:37 | 50.35202 | 127.54343 | 2508 ft | 215 kts | 97° |
| 2026-04-15 12:37 | 50.35136 | 127.56680 | 2503 ft | 215 kts | 96° |
| 2026-04-15 12:37 | 50.35226 | 127.58998 | 2502 ft | 219 kts | 79° |
| 2026-04-15 12:38 | 50.36032 | 127.61097 | 2502 ft | 235 kts | 47° |
| 2026-04-15 12:38 | 50.37512 | 127.62232 | 2507 ft | 242 kts | 10° |
| 2026-04-15 12:38 | 50.39203 | 127.61944 | 2515 ft | 247 kts | 346° |
| 2026-04-15 12:38 | 50.40867 | 127.61213 | 2510 ft | 251 kts | 346° |
| 2026-04-15 12:39 | 50.42517 | 127.60497 | 2500 ft | 246 kts | 345° |
| 2026-04-15 12:39 | 50.44180 | 127.59780 | 2498 ft | 246 kts | 346° |
| 2026-04-15 12:39 | 50.45849 | 127.59055 | 2511 ft | 251 kts | 346° |
| 2026-04-15 12:39 | 50.47530 | 127.58298 | 2513 ft | 248 kts | 347° |
| 2026-04-15 12:40 | 50.49197 | 127.57562 | 2498 ft | 246 kts | 346° |
| 2026-04-15 12:40 | 50.50831 | 127.56863 | 2512 ft | 248 kts | 346° |
| 2026-04-15 12:40 | 50.52499 | 127.56131 | 2511 ft | 251 kts | 345° |
| 2026-04-15 12:40 | 50.54183 | 127.55395 | 2515 ft | 251 kts | 345° |
| 2026-04-15 12:41 | 50.55861 | 127.54657 | 2512 ft | 250 kts | 346° |
| 2026-04-15 12:41 | 50.57535 | 127.53923 | 2511 ft | 249 kts | 346° |
| 2026-04-15 12:41 | 50.59208 | 127.53192 | 2509 ft | 249 kts | 346° |
| 2026-04-15 12:41 | 50.60894 | 127.52440 | 2504 ft | 252 kts | 345° |
| 2026-04-15 12:42 | 50.62551 | 127.51710 | 2495 ft | 242 kts | 344° |
| 2026-04-15 12:42 | 50.63954 | 127.50492 | 2496 ft | 224 kts | 312° |
| 2026-04-15 12:42 | 50.64706 | 127.48438 | 2513 ft | 213 kts | 278° |
| 2026-04-15 12:42 | 50.64702 | 127.46277 | 2539 ft | 185 kts | 248° |
| 2026-04-15 12:43 | 50.64158 | 127.44611 | 2504 ft | 160 kts | 221° |
| 2026-04-15 12:43 | 50.63427 | 127.43414 | 2491 ft | 145 kts | 212° |
| 2026-04-15 12:43 | 50.62609 | 127.42592 | 2496 ft | 136 kts | 196° |
| 2026-04-15 12:43 | 50.61724 | 127.42114 | 2506 ft | 134 kts | 191° |
| 2026-04-15 12:44 | 50.60849 | 127.41670 | 2522 ft | 132 kts | 190° |
| 2026-04-15 12:44 | 50.59965 | 127.41217 | 2503 ft | 134 kts | 190° |
| 2026-04-15 12:44 | 50.59088 | 127.40769 | 2511 ft | 133 kts | 191° |
| 2026-04-15 12:44 | 50.58197 | 127.40322 | 2495 ft | 133 kts | 190° |
| 2026-04-15 12:45 | 50.57318 | 127.39869 | 2501 ft | 133 kts | 191° |
| 2026-04-15 12:45 | 50.56435 | 127.39414 | 2514 ft | 135 kts | 192° |
| 2026-04-15 12:45 | 50.55847 | 127.39108 | 2507 ft | 133 kts | 193° |
| 2026-04-15 12:45 | 50.54671 | 127.38500 | 2512 ft | 133 kts | 193° |
| 2026-04-15 12:46 | 50.53774 | 127.38138 | 2507 ft | 134 kts | 180° |
| 2026-04-15 12:46 | 50.52864 | 127.38340 | 2338 ft | 135 kts | 169° |
| 2026-04-15 12:46 | 50.51930 | 127.38600 | 2169 ft | 134 kts | 169° |
| 2026-04-15 12:46 | 50.51010 | 127.38875 | 1985 ft | 134 kts | 168° |
| 2026-04-15 12:47 | 50.50106 | 127.39158 | 1798 ft | 133 kts | 165° |
| 2026-04-15 12:47 | 50.49218 | 127.39442 | 1630 ft | 131 kts | 167° |
| 2026-04-15 12:47 | 50.48325 | 127.39728 | 1458 ft | 131 kts | 167° |
| 2026-04-15 12:47 | 50.47426 | 127.40018 | 1286 ft | 130 kts | 167° |
| 2026-04-15 12:48 | 50.46553 | 127.40301 | 1107 ft | 130 kts | 167° |
| 2026-04-15 12:48 | 50.45671 | 127.40587 | 943 ft | 130 kts | 167° |
| 2026-04-15 12:48 | 50.44786 | 127.40873 | 781 ft | 130 kts | 167° |
| 2026-04-15 12:48 | 50.43906 | 127.41161 | 690 ft | 130 kts | 167° |
| 2026-04-15 12:49 | 50.43076 | 127.41433 | 657 ft | 103 kts | 168° |
| 2026-04-15 12:49 | 50.42548 | 127.41602 | 658 ft | 53 kts | 168° |
| 2026-04-15 12:49 | 50.42314 | 127.41670 | 660 ft | 19 kts | 192° |
| 2026-04-15 12:49 | 50.42267 | 127.41535 | 658 ft | 14 kts | 260° |
| 2026-04-15 12:50 | 50.42248 | 127.41403 | 658 ft | 11 kts | 255° |
| 2026-04-15 12:50 | 50.42232 | 127.41293 | 657 ft | 10 kts | 259° |
| 2026-04-15 12:50 | 50.42220 | 127.41190 | 657 ft | 8 kts | 260° |
| 2026-04-15 12:50 | 50.42213 | 127.41138 | 657 ft | 3 kts | 258° |
| 2026-04-15 12:51 | 50.42215 | 127.41075 | 657 ft | 11 kts | 295° |
| 2026-04-15 12:51 | 50.42255 | 127.41030 | 657 ft | 4 kts | 295° |
| 2026-04-15 12:51 | 50.42257 | 127.41012 | 657 ft | 0 kts | 272° |
| 2026-04-15 12:51 | 50.42254 | 127.40989 | 657 ft | 1 kts | 260° |
| 2026-04-15 12:52 | 50.42251 | 127.40971 | 657 ft | 5 kts | 256° |
| 2026-04-15 12:52 | 50.42251 | 127.40968 | 657 ft | 0 kts | 257° |